<?xml version="1.0" encoding="UTF-8" standalone="no" ?>
<gpx xmlns="http://www.topografix.com/GPX/1/1" xmlns:xsi="http://www.w3.org/2001/XMLSchema-instance" xsi:schemaLocation="http://www.topografix.com/GPX/1/1 http://www.topografix.com/GPX/1/1/gpx.xsd" version="1.1" creator="VisuGPX - https://www.visugpx.com">
  <metadata>
    <name>Ste Marie aux Mines -vers St Dié</name>
  </metadata>
  <wpt lat="48.24105" lon="7.14247">
    <ele>616</ele>
    <name><![CDATA[Point de passage 1]]></name>
    <type><![CDATA[GENERIC]]></type>
  </wpt>
  <wpt lat="48.24105" lon="7.14246">
    <ele>616</ele>
    <name><![CDATA[Point de passage 2]]></name>
    <type><![CDATA[GENERIC]]></type>
  </wpt>
  <trk>
    <name><![CDATA[Journée vers st dié]]></name>
    <trkseg>
      <trkpt lat="48.24105" lon="7.14247">
        <ele>616</ele>
        <time>2026-07-09T10:03:10.000Z</time>
      </trkpt>
      <trkpt lat="48.24108" lon="7.14234">
        <ele>618</ele>
        <time>2026-07-09T10:03:41.000Z</time>
      </trkpt>
      <trkpt lat="48.24102" lon="7.14224">
        <ele>618</ele>
        <time>2026-07-09T10:03:51.000Z</time>
      </trkpt>
      <trkpt lat="48.24073" lon="7.14211">
        <ele>622</ele>
        <time>2026-07-09T10:05:07.000Z</time>
      </trkpt>
      <trkpt lat="48.24044" lon="7.14198">
        <ele>626</ele>
        <time>2026-07-09T10:06:23.000Z</time>
      </trkpt>
      <trkpt lat="48.24015" lon="7.142">
        <ele>627</ele>
        <time>2026-07-09T10:07:06.000Z</time>
      </trkpt>
      <trkpt lat="48.23973" lon="7.14197">
        <ele>632</ele>
        <time>2026-07-09T10:08:46.000Z</time>
      </trkpt>
      <trkpt lat="48.23945" lon="7.14203">
        <ele>632</ele>
        <time>2026-07-09T10:09:18.000Z</time>
      </trkpt>
      <trkpt lat="48.23918" lon="7.14227">
        <ele>634</ele>
        <time>2026-07-09T10:10:16.000Z</time>
      </trkpt>
      <trkpt lat="48.23933" lon="7.14189">
        <ele>638</ele>
        <time>2026-07-09T10:11:31.000Z</time>
      </trkpt>
      <trkpt lat="48.23951" lon="7.1417">
        <ele>639</ele>
        <time>2026-07-09T10:12:06.000Z</time>
      </trkpt>
      <trkpt lat="48.23975" lon="7.14163">
        <ele>642</ele>
        <time>2026-07-09T10:13:05.000Z</time>
      </trkpt>
      <trkpt lat="48.24" lon="7.14156">
        <ele>645</ele>
        <time>2026-07-09T10:14:04.000Z</time>
      </trkpt>
      <trkpt lat="48.24028" lon="7.14141">
        <ele>649</ele>
        <time>2026-07-09T10:15:19.000Z</time>
      </trkpt>
      <trkpt lat="48.24056" lon="7.14127">
        <ele>654</ele>
        <time>2026-07-09T10:16:44.000Z</time>
      </trkpt>
      <trkpt lat="48.24074" lon="7.141">
        <ele>656</ele>
        <time>2026-07-09T10:17:34.000Z</time>
      </trkpt>
      <trkpt lat="48.24084" lon="7.14069">
        <ele>662</ele>
        <time>2026-07-09T10:19:02.000Z</time>
      </trkpt>
      <trkpt lat="48.24094" lon="7.14037">
        <ele>663</ele>
        <time>2026-07-09T10:19:39.000Z</time>
      </trkpt>
      <trkpt lat="48.24106" lon="7.14028">
        <ele>663</ele>
        <time>2026-07-09T10:19:55.000Z</time>
      </trkpt>
      <trkpt lat="48.24116" lon="7.14058">
        <ele>660</ele>
        <time>2026-07-09T10:20:21.000Z</time>
      </trkpt>
      <trkpt lat="48.24106" lon="7.14028">
        <ele>663</ele>
        <time>2026-07-09T10:21:17.000Z</time>
      </trkpt>
      <trkpt lat="48.24117" lon="7.14033">
        <ele>666</ele>
        <time>2026-07-09T10:22:01.000Z</time>
      </trkpt>
      <trkpt lat="48.24142" lon="7.14059">
        <ele>669</ele>
        <time>2026-07-09T10:23:06.000Z</time>
      </trkpt>
      <trkpt lat="48.24166" lon="7.14085">
        <ele>672</ele>
        <time>2026-07-09T10:24:11.000Z</time>
      </trkpt>
      <trkpt lat="48.24191" lon="7.14111">
        <ele>676</ele>
        <time>2026-07-09T10:25:26.000Z</time>
      </trkpt>
      <trkpt lat="48.24203" lon="7.14118">
        <ele>676</ele>
        <time>2026-07-09T10:25:41.000Z</time>
      </trkpt>
      <trkpt lat="48.24226" lon="7.14116">
        <ele>679</ele>
        <time>2026-07-09T10:26:38.000Z</time>
      </trkpt>
      <trkpt lat="48.24141" lon="7.13864">
        <ele>702</ele>
        <time>2026-07-09T10:34:10.000Z</time>
      </trkpt>
      <trkpt lat="48.2414" lon="7.13862">
        <ele>702</ele>
        <time>2026-07-09T10:34:12.000Z</time>
      </trkpt>
      <trkpt lat="48.24134" lon="7.13806">
        <ele>707</ele>
        <time>2026-07-09T10:35:47.000Z</time>
      </trkpt>
      <trkpt lat="48.24144" lon="7.13764">
        <ele>711</ele>
        <time>2026-07-09T10:37:02.000Z</time>
      </trkpt>
      <trkpt lat="48.24153" lon="7.13722">
        <ele>717</ele>
        <time>2026-07-09T10:38:37.000Z</time>
      </trkpt>
      <trkpt lat="48.24193" lon="7.13692">
        <ele>719</ele>
        <time>2026-07-09T10:39:49.000Z</time>
      </trkpt>
      <trkpt lat="48.24233" lon="7.13661">
        <ele>722</ele>
        <time>2026-07-09T10:41:11.000Z</time>
      </trkpt>
      <trkpt lat="48.24253" lon="7.1364">
        <ele>725</ele>
        <time>2026-07-09T10:42:09.000Z</time>
      </trkpt>
      <trkpt lat="48.24281" lon="7.13598">
        <ele>732</ele>
        <time>2026-07-09T10:44:07.000Z</time>
      </trkpt>
      <trkpt lat="48.24303" lon="7.13577">
        <ele>737</ele>
        <time>2026-07-09T10:45:28.000Z</time>
      </trkpt>
      <trkpt lat="48.24333" lon="7.1356">
        <ele>746</ele>
        <time>2026-07-09T10:47:37.000Z</time>
      </trkpt>
      <trkpt lat="48.2434" lon="7.13551">
        <ele>748</ele>
        <time>2026-07-09T10:48:08.000Z</time>
      </trkpt>
      <trkpt lat="48.24343" lon="7.1353">
        <ele>752</ele>
        <time>2026-07-09T10:49:05.000Z</time>
      </trkpt>
      <trkpt lat="48.24342" lon="7.13469">
        <ele>757</ele>
        <time>2026-07-09T10:50:43.000Z</time>
      </trkpt>
      <trkpt lat="48.2433" lon="7.13451">
        <ele>760</ele>
        <time>2026-07-09T10:51:34.000Z</time>
      </trkpt>
      <trkpt lat="48.24316" lon="7.13446">
        <ele>762</ele>
        <time>2026-07-09T10:52:11.000Z</time>
      </trkpt>
      <trkpt lat="48.24292" lon="7.13447">
        <ele>765</ele>
        <time>2026-07-09T10:53:09.000Z</time>
      </trkpt>
      <trkpt lat="48.24251" lon="7.13435">
        <ele>769</ele>
        <time>2026-07-09T10:54:38.000Z</time>
      </trkpt>
      <trkpt lat="48.24232" lon="7.13424">
        <ele>770</ele>
        <time>2026-07-09T10:55:12.000Z</time>
      </trkpt>
      <trkpt lat="48.24217" lon="7.13413">
        <ele>771</ele>
        <time>2026-07-09T10:55:42.000Z</time>
      </trkpt>
      <trkpt lat="48.24228" lon="7.13359">
        <ele>774</ele>
        <time>2026-07-09T10:56:56.000Z</time>
      </trkpt>
      <trkpt lat="48.24253" lon="7.13347">
        <ele>773</ele>
        <time>2026-07-09T10:57:27.000Z</time>
      </trkpt>
      <trkpt lat="48.24279" lon="7.13316">
        <ele>772</ele>
        <time>2026-07-09T10:58:04.000Z</time>
      </trkpt>
      <trkpt lat="48.24316" lon="7.13286">
        <ele>771</ele>
        <time>2026-07-09T10:58:53.000Z</time>
      </trkpt>
      <trkpt lat="48.24312" lon="7.13278">
        <ele>772</ele>
        <time>2026-07-09T10:59:11.000Z</time>
      </trkpt>
      <trkpt lat="48.24291" lon="7.13265">
        <ele>772</ele>
        <time>2026-07-09T10:59:37.000Z</time>
      </trkpt>
      <trkpt lat="48.24291" lon="7.13212">
        <ele>768</ele>
        <time>2026-07-09T11:00:17.000Z</time>
      </trkpt>
      <trkpt lat="48.24281" lon="7.13182">
        <ele>767</ele>
        <time>2026-07-09T11:00:43.000Z</time>
      </trkpt>
      <trkpt lat="48.24266" lon="7.13149">
        <ele>765</ele>
        <time>2026-07-09T11:01:14.000Z</time>
      </trkpt>
      <trkpt lat="48.24247" lon="7.13132">
        <ele>762</ele>
        <time>2026-07-09T11:01:39.000Z</time>
      </trkpt>
      <trkpt lat="48.24218" lon="7.13121">
        <ele>765</ele>
        <time>2026-07-09T11:02:44.000Z</time>
      </trkpt>
      <trkpt lat="48.24183" lon="7.13119">
        <ele>764</ele>
        <time>2026-07-09T11:03:24.000Z</time>
      </trkpt>
      <trkpt lat="48.24152" lon="7.13106">
        <ele>759</ele>
        <time>2026-07-09T11:04:01.000Z</time>
      </trkpt>
      <trkpt lat="48.24122" lon="7.13093">
        <ele>755</ele>
        <time>2026-07-09T11:04:38.000Z</time>
      </trkpt>
      <trkpt lat="48.24084" lon="7.13099">
        <ele>750</ele>
        <time>2026-07-09T11:05:21.000Z</time>
      </trkpt>
      <trkpt lat="48.24057" lon="7.13089">
        <ele>745</ele>
        <time>2026-07-09T11:05:53.000Z</time>
      </trkpt>
      <trkpt lat="48.24036" lon="7.13065">
        <ele>739</ele>
        <time>2026-07-09T11:06:23.000Z</time>
      </trkpt>
      <trkpt lat="48.24025" lon="7.13042">
        <ele>739</ele>
        <time>2026-07-09T11:06:45.000Z</time>
      </trkpt>
      <trkpt lat="48.24047" lon="7.13009">
        <ele>729</ele>
        <time>2026-07-09T11:07:21.000Z</time>
      </trkpt>
      <trkpt lat="48.24071" lon="7.12983">
        <ele>721</ele>
        <time>2026-07-09T11:07:54.000Z</time>
      </trkpt>
      <trkpt lat="48.24094" lon="7.12957">
        <ele>714</ele>
        <time>2026-07-09T11:08:27.000Z</time>
      </trkpt>
      <trkpt lat="48.2412" lon="7.12921">
        <ele>706</ele>
        <time>2026-07-09T11:09:08.000Z</time>
      </trkpt>
      <trkpt lat="48.24146" lon="7.12884">
        <ele>700</ele>
        <time>2026-07-09T11:09:49.000Z</time>
      </trkpt>
      <trkpt lat="48.24156" lon="7.12854">
        <ele>695</ele>
        <time>2026-07-09T11:10:15.000Z</time>
      </trkpt>
      <trkpt lat="48.24167" lon="7.12823">
        <ele>692</ele>
        <time>2026-07-09T11:10:41.000Z</time>
      </trkpt>
      <trkpt lat="48.24171" lon="7.12775">
        <ele>685</ele>
        <time>2026-07-09T11:11:18.000Z</time>
      </trkpt>
      <trkpt lat="48.2417" lon="7.12766">
        <ele>684</ele>
        <time>2026-07-09T11:11:25.000Z</time>
      </trkpt>
      <trkpt lat="48.24169" lon="7.12756">
        <ele>684</ele>
        <time>2026-07-09T11:11:32.000Z</time>
      </trkpt>
      <trkpt lat="48.24149" lon="7.12728">
        <ele>681</ele>
        <time>2026-07-09T11:12:03.000Z</time>
      </trkpt>
      <trkpt lat="48.24129" lon="7.12689">
        <ele>680</ele>
        <time>2026-07-09T11:12:41.000Z</time>
      </trkpt>
      <trkpt lat="48.24114" lon="7.12686">
        <ele>683</ele>
        <time>2026-07-09T11:13:29.000Z</time>
      </trkpt>
      <trkpt lat="48.241" lon="7.12669">
        <ele>685</ele>
        <time>2026-07-09T11:14:09.000Z</time>
      </trkpt>
      <trkpt lat="48.24128" lon="7.12654">
        <ele>687</ele>
        <time>2026-07-09T11:15:03.000Z</time>
      </trkpt>
      <trkpt lat="48.24149" lon="7.12626">
        <ele>690</ele>
        <time>2026-07-09T11:16:06.000Z</time>
      </trkpt>
      <trkpt lat="48.2417" lon="7.12598">
        <ele>692</ele>
        <time>2026-07-09T11:16:59.000Z</time>
      </trkpt>
      <trkpt lat="48.24189" lon="7.1256">
        <ele>696</ele>
        <time>2026-07-09T11:18:17.000Z</time>
      </trkpt>
      <trkpt lat="48.24208" lon="7.12522">
        <ele>703</ele>
        <time>2026-07-09T11:20:05.000Z</time>
      </trkpt>
      <trkpt lat="48.24232" lon="7.1249">
        <ele>701</ele>
        <time>2026-07-09T11:20:41.000Z</time>
      </trkpt>
      <trkpt lat="48.24256" lon="7.12459">
        <ele>707</ele>
        <time>2026-07-09T11:22:19.000Z</time>
      </trkpt>
      <trkpt lat="48.24289" lon="7.12434">
        <ele>708</ele>
        <time>2026-07-09T11:23:12.000Z</time>
      </trkpt>
      <trkpt lat="48.24323" lon="7.1241">
        <ele>711</ele>
        <time>2026-07-09T11:24:25.000Z</time>
      </trkpt>
      <trkpt lat="48.24344" lon="7.1239">
        <ele>713</ele>
        <time>2026-07-09T11:25:15.000Z</time>
      </trkpt>
      <trkpt lat="48.24358" lon="7.12341">
        <ele>715</ele>
        <time>2026-07-09T11:26:16.000Z</time>
      </trkpt>
      <trkpt lat="48.24364" lon="7.12301">
        <ele>716</ele>
        <time>2026-07-09T11:26:58.000Z</time>
      </trkpt>
      <trkpt lat="48.24369" lon="7.1226">
        <ele>718</ele>
        <time>2026-07-09T11:27:50.000Z</time>
      </trkpt>
      <trkpt lat="48.24376" lon="7.12239">
        <ele>720</ele>
        <time>2026-07-09T11:28:28.000Z</time>
      </trkpt>
      <trkpt lat="48.24391" lon="7.12209">
        <ele>725</ele>
        <time>2026-07-09T11:29:49.000Z</time>
      </trkpt>
      <trkpt lat="48.24407" lon="7.12184">
        <ele>725</ele>
        <time>2026-07-09T11:30:15.000Z</time>
      </trkpt>
      <trkpt lat="48.24423" lon="7.1216">
        <ele>727</ele>
        <time>2026-07-09T11:31:01.000Z</time>
      </trkpt>
      <trkpt lat="48.24457" lon="7.12118">
        <ele>729</ele>
        <time>2026-07-09T11:32:12.000Z</time>
      </trkpt>
      <trkpt lat="48.24469" lon="7.12108">
        <ele>730</ele>
        <time>2026-07-09T11:32:38.000Z</time>
      </trkpt>
      <trkpt lat="48.24488" lon="7.12053">
        <ele>734</ele>
        <time>2026-07-09T11:34:07.000Z</time>
      </trkpt>
      <trkpt lat="48.24506" lon="7.12022">
        <ele>735</ele>
        <time>2026-07-09T11:34:48.000Z</time>
      </trkpt>
      <trkpt lat="48.24529" lon="7.12013">
        <ele>737</ele>
        <time>2026-07-09T11:35:36.000Z</time>
      </trkpt>
      <trkpt lat="48.24553" lon="7.12005">
        <ele>737</ele>
        <time>2026-07-09T11:36:04.000Z</time>
      </trkpt>
      <trkpt lat="48.24583" lon="7.11976">
        <ele>745</ele>
        <time>2026-07-09T11:38:07.000Z</time>
      </trkpt>
      <trkpt lat="48.24597" lon="7.11969">
        <ele>745</ele>
        <time>2026-07-09T11:38:24.000Z</time>
      </trkpt>
      <trkpt lat="48.24627" lon="7.1197">
        <ele>746</ele>
        <time>2026-07-09T11:39:09.000Z</time>
      </trkpt>
      <trkpt lat="48.24657" lon="7.11955">
        <ele>747</ele>
        <time>2026-07-09T11:39:55.000Z</time>
      </trkpt>
      <trkpt lat="48.24686" lon="7.1194">
        <ele>746</ele>
        <time>2026-07-09T11:40:31.000Z</time>
      </trkpt>
      <trkpt lat="48.24726" lon="7.11926">
        <ele>743</ele>
        <time>2026-07-09T11:41:18.000Z</time>
      </trkpt>
      <trkpt lat="48.24766" lon="7.11913">
        <ele>740</ele>
        <time>2026-07-09T11:42:05.000Z</time>
      </trkpt>
      <trkpt lat="48.24809" lon="7.11913">
        <ele>736</ele>
        <time>2026-07-09T11:42:54.000Z</time>
      </trkpt>
      <trkpt lat="48.24852" lon="7.11913">
        <ele>735</ele>
        <time>2026-07-09T11:43:43.000Z</time>
      </trkpt>
      <trkpt lat="48.24896" lon="7.11914">
        <ele>731</ele>
        <time>2026-07-09T11:44:32.000Z</time>
      </trkpt>
      <trkpt lat="48.24939" lon="7.11914">
        <ele>728</ele>
        <time>2026-07-09T11:45:21.000Z</time>
      </trkpt>
      <trkpt lat="48.24982" lon="7.11914">
        <ele>724</ele>
        <time>2026-07-09T11:46:10.000Z</time>
      </trkpt>
      <trkpt lat="48.25025" lon="7.11915">
        <ele>720</ele>
        <time>2026-07-09T11:46:59.000Z</time>
      </trkpt>
      <trkpt lat="48.25046" lon="7.11898">
        <ele>718</ele>
        <time>2026-07-09T11:47:26.000Z</time>
      </trkpt>
      <trkpt lat="48.2507" lon="7.11887">
        <ele>713</ele>
        <time>2026-07-09T11:47:54.000Z</time>
      </trkpt>
      <trkpt lat="48.25091" lon="7.11857">
        <ele>711</ele>
        <time>2026-07-09T11:48:28.000Z</time>
      </trkpt>
      <trkpt lat="48.25112" lon="7.11827">
        <ele>709</ele>
        <time>2026-07-09T11:49:01.000Z</time>
      </trkpt>
      <trkpt lat="48.25105" lon="7.11777">
        <ele>718</ele>
        <time>2026-07-09T11:51:12.000Z</time>
      </trkpt>
      <trkpt lat="48.25103" lon="7.11721">
        <ele>720</ele>
        <time>2026-07-09T11:52:16.000Z</time>
      </trkpt>
      <trkpt lat="48.25097" lon="7.11703">
        <ele>722</ele>
        <time>2026-07-09T11:52:52.000Z</time>
      </trkpt>
      <trkpt lat="48.25082" lon="7.11657">
        <ele>724</ele>
        <time>2026-07-09T11:53:51.000Z</time>
      </trkpt>
      <trkpt lat="48.2507" lon="7.11641">
        <ele>726</ele>
        <time>2026-07-09T11:54:30.000Z</time>
      </trkpt>
      <trkpt lat="48.25037" lon="7.11609">
        <ele>723</ele>
        <time>2026-07-09T11:55:15.000Z</time>
      </trkpt>
      <trkpt lat="48.25011" lon="7.1159">
        <ele>721</ele>
        <time>2026-07-09T11:55:49.000Z</time>
      </trkpt>
      <trkpt lat="48.24977" lon="7.11576">
        <ele>721</ele>
        <time>2026-07-09T11:56:29.000Z</time>
      </trkpt>
      <trkpt lat="48.24943" lon="7.11562">
        <ele>720</ele>
        <time>2026-07-09T11:57:09.000Z</time>
      </trkpt>
      <trkpt lat="48.24909" lon="7.11549">
        <ele>721</ele>
        <time>2026-07-09T11:57:59.000Z</time>
      </trkpt>
      <trkpt lat="48.24887" lon="7.11528">
        <ele>723</ele>
        <time>2026-07-09T11:58:49.000Z</time>
      </trkpt>
      <trkpt lat="48.24875" lon="7.11497">
        <ele>722</ele>
        <time>2026-07-09T11:59:16.000Z</time>
      </trkpt>
      <trkpt lat="48.24863" lon="7.11467">
        <ele>726</ele>
        <time>2026-07-09T12:00:24.000Z</time>
      </trkpt>
      <trkpt lat="48.24865" lon="7.11421">
        <ele>725</ele>
        <time>2026-07-09T12:00:59.000Z</time>
      </trkpt>
      <trkpt lat="48.24868" lon="7.11376">
        <ele>722</ele>
        <time>2026-07-09T12:01:34.000Z</time>
      </trkpt>
      <trkpt lat="48.24851" lon="7.11332">
        <ele>726</ele>
        <time>2026-07-09T12:02:54.000Z</time>
      </trkpt>
      <trkpt lat="48.24839" lon="7.11312">
        <ele>727</ele>
        <time>2026-07-09T12:03:25.000Z</time>
      </trkpt>
      <trkpt lat="48.2482" lon="7.11294">
        <ele>728</ele>
        <time>2026-07-09T12:04:01.000Z</time>
      </trkpt>
      <trkpt lat="48.24791" lon="7.1127">
        <ele>728</ele>
        <time>2026-07-09T12:04:39.000Z</time>
      </trkpt>
      <trkpt lat="48.24762" lon="7.11246">
        <ele>728</ele>
        <time>2026-07-09T12:05:17.000Z</time>
      </trkpt>
      <trkpt lat="48.24733" lon="7.11223">
        <ele>728</ele>
        <time>2026-07-09T12:05:55.000Z</time>
      </trkpt>
      <trkpt lat="48.24718" lon="7.11205">
        <ele>727</ele>
        <time>2026-07-09T12:06:16.000Z</time>
      </trkpt>
      <trkpt lat="48.24709" lon="7.11184">
        <ele>728</ele>
        <time>2026-07-09T12:06:45.000Z</time>
      </trkpt>
      <trkpt lat="48.24708" lon="7.11159">
        <ele>726</ele>
        <time>2026-07-09T12:07:05.000Z</time>
      </trkpt>
      <trkpt lat="48.24724" lon="7.11121">
        <ele>725</ele>
        <time>2026-07-09T12:07:39.000Z</time>
      </trkpt>
      <trkpt lat="48.24727" lon="7.11088">
        <ele>724</ele>
        <time>2026-07-09T12:08:04.000Z</time>
      </trkpt>
      <trkpt lat="48.2472" lon="7.11056">
        <ele>724</ele>
        <time>2026-07-09T12:08:30.000Z</time>
      </trkpt>
      <trkpt lat="48.24697" lon="7.11008">
        <ele>725</ele>
        <time>2026-07-09T12:09:25.000Z</time>
      </trkpt>
      <trkpt lat="48.24693" lon="7.10984">
        <ele>725</ele>
        <time>2026-07-09T12:09:44.000Z</time>
      </trkpt>
      <trkpt lat="48.247" lon="7.10958">
        <ele>727</ele>
        <time>2026-07-09T12:10:26.000Z</time>
      </trkpt>
      <trkpt lat="48.24724" lon="7.10908">
        <ele>725</ele>
        <time>2026-07-09T12:11:13.000Z</time>
      </trkpt>
      <trkpt lat="48.24742" lon="7.10866">
        <ele>725</ele>
        <time>2026-07-09T12:11:51.000Z</time>
      </trkpt>
      <trkpt lat="48.24747" lon="7.10848">
        <ele>723</ele>
        <time>2026-07-09T12:12:06.000Z</time>
      </trkpt>
      <trkpt lat="48.24748" lon="7.10827">
        <ele>723</ele>
        <time>2026-07-09T12:12:22.000Z</time>
      </trkpt>
      <trkpt lat="48.24742" lon="7.10791">
        <ele>723</ele>
        <time>2026-07-09T12:12:50.000Z</time>
      </trkpt>
      <trkpt lat="48.24735" lon="7.10755">
        <ele>722</ele>
        <time>2026-07-09T12:13:18.000Z</time>
      </trkpt>
      <trkpt lat="48.24731" lon="7.1071">
        <ele>724</ele>
        <time>2026-07-09T12:14:13.000Z</time>
      </trkpt>
      <trkpt lat="48.24727" lon="7.10664">
        <ele>724</ele>
        <time>2026-07-09T12:14:48.000Z</time>
      </trkpt>
      <trkpt lat="48.24717" lon="7.10646">
        <ele>725</ele>
        <time>2026-07-09T12:15:17.000Z</time>
      </trkpt>
      <trkpt lat="48.24687" lon="7.10616">
        <ele>722</ele>
        <time>2026-07-09T12:15:59.000Z</time>
      </trkpt>
      <trkpt lat="48.24677" lon="7.10588">
        <ele>722</ele>
        <time>2026-07-09T12:16:23.000Z</time>
      </trkpt>
      <trkpt lat="48.24678" lon="7.10553">
        <ele>721</ele>
        <time>2026-07-09T12:16:50.000Z</time>
      </trkpt>
      <trkpt lat="48.24682" lon="7.10507">
        <ele>722</ele>
        <time>2026-07-09T12:17:35.000Z</time>
      </trkpt>
      <trkpt lat="48.24696" lon="7.10452">
        <ele>725</ele>
        <time>2026-07-09T12:18:51.000Z</time>
      </trkpt>
      <trkpt lat="48.24691" lon="7.10402">
        <ele>725</ele>
        <time>2026-07-09T12:19:29.000Z</time>
      </trkpt>
      <trkpt lat="48.24673" lon="7.10372">
        <ele>725</ele>
        <time>2026-07-09T12:20:00.000Z</time>
      </trkpt>
      <trkpt lat="48.24644" lon="7.10356">
        <ele>724</ele>
        <time>2026-07-09T12:20:36.000Z</time>
      </trkpt>
      <trkpt lat="48.2462" lon="7.1035">
        <ele>721</ele>
        <time>2026-07-09T12:21:05.000Z</time>
      </trkpt>
      <trkpt lat="48.24598" lon="7.10322">
        <ele>715</ele>
        <time>2026-07-09T12:21:38.000Z</time>
      </trkpt>
      <trkpt lat="48.2458" lon="7.10286">
        <ele>710</ele>
        <time>2026-07-09T12:22:12.000Z</time>
      </trkpt>
      <trkpt lat="48.24562" lon="7.1025">
        <ele>704</ele>
        <time>2026-07-09T12:22:46.000Z</time>
      </trkpt>
      <trkpt lat="48.24554" lon="7.10202">
        <ele>699</ele>
        <time>2026-07-09T12:23:24.000Z</time>
      </trkpt>
      <trkpt lat="48.24546" lon="7.10153">
        <ele>696</ele>
        <time>2026-07-09T12:24:02.000Z</time>
      </trkpt>
      <trkpt lat="48.24547" lon="7.10093">
        <ele>688</ele>
        <time>2026-07-09T12:24:48.000Z</time>
      </trkpt>
      <trkpt lat="48.24548" lon="7.10033">
        <ele>683</ele>
        <time>2026-07-09T12:25:34.000Z</time>
      </trkpt>
      <trkpt lat="48.2455" lon="7.09973">
        <ele>676</ele>
        <time>2026-07-09T12:26:20.000Z</time>
      </trkpt>
      <trkpt lat="48.24551" lon="7.09912">
        <ele>672</ele>
        <time>2026-07-09T12:27:06.000Z</time>
      </trkpt>
      <trkpt lat="48.24562" lon="7.09865">
        <ele>667</ele>
        <time>2026-07-09T12:27:44.000Z</time>
      </trkpt>
      <trkpt lat="48.24581" lon="7.09816">
        <ele>664</ele>
        <time>2026-07-09T12:28:27.000Z</time>
      </trkpt>
      <trkpt lat="48.24603" lon="7.09775">
        <ele>657</ele>
        <time>2026-07-09T12:29:07.000Z</time>
      </trkpt>
      <trkpt lat="48.24625" lon="7.09734">
        <ele>651</ele>
        <time>2026-07-09T12:29:47.000Z</time>
      </trkpt>
      <trkpt lat="48.24622" lon="7.09709">
        <ele>653</ele>
        <time>2026-07-09T12:30:27.000Z</time>
      </trkpt>
      <trkpt lat="48.24603" lon="7.09675">
        <ele>655</ele>
        <time>2026-07-09T12:31:22.000Z</time>
      </trkpt>
      <trkpt lat="48.24594" lon="7.09667">
        <ele>654</ele>
        <time>2026-07-09T12:31:34.000Z</time>
      </trkpt>
      <trkpt lat="48.24577" lon="7.09668">
        <ele>655</ele>
        <time>2026-07-09T12:32:03.000Z</time>
      </trkpt>
      <trkpt lat="48.24574" lon="7.09678">
        <ele>656</ele>
        <time>2026-07-09T12:32:22.000Z</time>
      </trkpt>
      <trkpt lat="48.24567" lon="7.0969">
        <ele>657</ele>
        <time>2026-07-09T12:32:45.000Z</time>
      </trkpt>
      <trkpt lat="48.24542" lon="7.09719">
        <ele>660</ele>
        <time>2026-07-09T12:33:52.000Z</time>
      </trkpt>
      <trkpt lat="48.24509" lon="7.09735">
        <ele>659</ele>
        <time>2026-07-09T12:34:32.000Z</time>
      </trkpt>
      <trkpt lat="48.24476" lon="7.09751">
        <ele>657</ele>
        <time>2026-07-09T12:35:12.000Z</time>
      </trkpt>
      <trkpt lat="48.2446" lon="7.09763">
        <ele>657</ele>
        <time>2026-07-09T12:35:33.000Z</time>
      </trkpt>
      <trkpt lat="48.24426" lon="7.09797">
        <ele>656</ele>
        <time>2026-07-09T12:36:19.000Z</time>
      </trkpt>
      <trkpt lat="48.24399" lon="7.09832">
        <ele>651</ele>
        <time>2026-07-09T12:37:00.000Z</time>
      </trkpt>
      <trkpt lat="48.24371" lon="7.09867">
        <ele>642</ele>
        <time>2026-07-09T12:37:41.000Z</time>
      </trkpt>
      <trkpt lat="48.24346" lon="7.09921">
        <ele>639</ele>
        <time>2026-07-09T12:38:31.000Z</time>
      </trkpt>
      <trkpt lat="48.24323" lon="7.09947">
        <ele>638</ele>
        <time>2026-07-09T12:39:04.000Z</time>
      </trkpt>
      <trkpt lat="48.24292" lon="7.09994">
        <ele>641</ele>
        <time>2026-07-09T12:40:26.000Z</time>
      </trkpt>
      <trkpt lat="48.2426" lon="7.10042">
        <ele>644</ele>
        <time>2026-07-09T12:41:48.000Z</time>
      </trkpt>
      <trkpt lat="48.24249" lon="7.10078">
        <ele>644</ele>
        <time>2026-07-09T12:42:19.000Z</time>
      </trkpt>
      <trkpt lat="48.24241" lon="7.10118">
        <ele>647</ele>
        <time>2026-07-09T12:43:21.000Z</time>
      </trkpt>
      <trkpt lat="48.24233" lon="7.10157">
        <ele>647</ele>
        <time>2026-07-09T12:43:52.000Z</time>
      </trkpt>
      <trkpt lat="48.24226" lon="7.1021">
        <ele>649</ele>
        <time>2026-07-09T12:44:54.000Z</time>
      </trkpt>
      <trkpt lat="48.24222" lon="7.10268">
        <ele>650</ele>
        <time>2026-07-09T12:45:48.000Z</time>
      </trkpt>
      <trkpt lat="48.24218" lon="7.10325">
        <ele>651</ele>
        <time>2026-07-09T12:46:42.000Z</time>
      </trkpt>
      <trkpt lat="48.24213" lon="7.10358">
        <ele>650</ele>
        <time>2026-07-09T12:47:08.000Z</time>
      </trkpt>
      <trkpt lat="48.24208" lon="7.10391">
        <ele>650</ele>
        <time>2026-07-09T12:47:34.000Z</time>
      </trkpt>
      <trkpt lat="48.24203" lon="7.10437">
        <ele>651</ele>
        <time>2026-07-09T12:48:20.000Z</time>
      </trkpt>
      <trkpt lat="48.24198" lon="7.10483">
        <ele>654</ele>
        <time>2026-07-09T12:49:26.000Z</time>
      </trkpt>
      <trkpt lat="48.24193" lon="7.10528">
        <ele>656</ele>
        <time>2026-07-09T12:50:22.000Z</time>
      </trkpt>
      <trkpt lat="48.24186" lon="7.10554">
        <ele>656</ele>
        <time>2026-07-09T12:50:43.000Z</time>
      </trkpt>
      <trkpt lat="48.24153" lon="7.10597">
        <ele>659</ele>
        <time>2026-07-09T12:52:04.000Z</time>
      </trkpt>
      <trkpt lat="48.24147" lon="7.10654">
        <ele>663</ele>
        <time>2026-07-09T12:53:29.000Z</time>
      </trkpt>
      <trkpt lat="48.2414" lon="7.10712">
        <ele>667</ele>
        <time>2026-07-09T12:54:54.000Z</time>
      </trkpt>
      <trkpt lat="48.24133" lon="7.10769">
        <ele>675</ele>
        <time>2026-07-09T12:57:01.000Z</time>
      </trkpt>
      <trkpt lat="48.24126" lon="7.10826">
        <ele>676</ele>
        <time>2026-07-09T12:57:56.000Z</time>
      </trkpt>
      <trkpt lat="48.2412" lon="7.10883">
        <ele>677</ele>
        <time>2026-07-09T12:58:51.000Z</time>
      </trkpt>
      <trkpt lat="48.24113" lon="7.10929">
        <ele>677</ele>
        <time>2026-07-09T12:59:27.000Z</time>
      </trkpt>
      <trkpt lat="48.24106" lon="7.10976">
        <ele>677</ele>
        <time>2026-07-09T13:00:03.000Z</time>
      </trkpt>
      <trkpt lat="48.24099" lon="7.11022">
        <ele>678</ele>
        <time>2026-07-09T13:00:49.000Z</time>
      </trkpt>
      <trkpt lat="48.24101" lon="7.11071">
        <ele>682</ele>
        <time>2026-07-09T13:02:08.000Z</time>
      </trkpt>
      <trkpt lat="48.24104" lon="7.1112">
        <ele>685</ele>
        <time>2026-07-09T13:03:16.000Z</time>
      </trkpt>
      <trkpt lat="48.24111" lon="7.11165">
        <ele>690</ele>
        <time>2026-07-09T13:04:43.000Z</time>
      </trkpt>
      <trkpt lat="48.24118" lon="7.11211">
        <ele>697</ele>
        <time>2026-07-09T13:06:31.000Z</time>
      </trkpt>
      <trkpt lat="48.24117" lon="7.11256">
        <ele>698</ele>
        <time>2026-07-09T13:07:16.000Z</time>
      </trkpt>
      <trkpt lat="48.24116" lon="7.11301">
        <ele>702</ele>
        <time>2026-07-09T13:08:32.000Z</time>
      </trkpt>
      <trkpt lat="48.24115" lon="7.11346">
        <ele>706</ele>
        <time>2026-07-09T13:09:48.000Z</time>
      </trkpt>
      <trkpt lat="48.24113" lon="7.11384">
        <ele>709</ele>
        <time>2026-07-09T13:10:47.000Z</time>
      </trkpt>
      <trkpt lat="48.24106" lon="7.11409">
        <ele>710</ele>
        <time>2026-07-09T13:11:18.000Z</time>
      </trkpt>
      <trkpt lat="48.24106" lon="7.11454">
        <ele>717</ele>
        <time>2026-07-09T13:13:04.000Z</time>
      </trkpt>
      <trkpt lat="48.24099" lon="7.11454">
        <ele>716</ele>
        <time>2026-07-09T13:13:12.000Z</time>
      </trkpt>
      <trkpt lat="48.24106" lon="7.11454">
        <ele>717</ele>
        <time>2026-07-09T13:13:31.000Z</time>
      </trkpt>
      <trkpt lat="48.24112" lon="7.11461">
        <ele>719</ele>
        <time>2026-07-09T13:14:00.000Z</time>
      </trkpt>
      <trkpt lat="48.24114" lon="7.11471">
        <ele>722</ele>
        <time>2026-07-09T13:14:38.000Z</time>
      </trkpt>
      <trkpt lat="48.24111" lon="7.11504">
        <ele>726</ele>
        <time>2026-07-09T13:15:45.000Z</time>
      </trkpt>
      <trkpt lat="48.24102" lon="7.11538">
        <ele>729</ele>
        <time>2026-07-09T13:16:43.000Z</time>
      </trkpt>
      <trkpt lat="48.24094" lon="7.11572">
        <ele>732</ele>
        <time>2026-07-09T13:17:41.000Z</time>
      </trkpt>
      <trkpt lat="48.24095" lon="7.11593">
        <ele>735</ele>
        <time>2026-07-09T13:18:28.000Z</time>
      </trkpt>
      <trkpt lat="48.24084" lon="7.11652">
        <ele>739</ele>
        <time>2026-07-09T13:19:56.000Z</time>
      </trkpt>
      <trkpt lat="48.24075" lon="7.11666">
        <ele>740</ele>
        <time>2026-07-09T13:20:22.000Z</time>
      </trkpt>
      <trkpt lat="48.24039" lon="7.11693">
        <ele>749</ele>
        <time>2026-07-09T13:22:40.000Z</time>
      </trkpt>
      <trkpt lat="48.24003" lon="7.11719">
        <ele>756</ele>
        <time>2026-07-09T13:24:38.000Z</time>
      </trkpt>
      <trkpt lat="48.23968" lon="7.11746">
        <ele>763</ele>
        <time>2026-07-09T13:26:36.000Z</time>
      </trkpt>
      <trkpt lat="48.23945" lon="7.11744">
        <ele>766</ele>
        <time>2026-07-09T13:27:33.000Z</time>
      </trkpt>
      <trkpt lat="48.23924" lon="7.1173">
        <ele>771</ele>
        <time>2026-07-09T13:28:50.000Z</time>
      </trkpt>
      <trkpt lat="48.23903" lon="7.11716">
        <ele>776</ele>
        <time>2026-07-09T13:30:08.000Z</time>
      </trkpt>
      <trkpt lat="48.2387" lon="7.11686">
        <ele>781</ele>
        <time>2026-07-09T13:31:44.000Z</time>
      </trkpt>
      <trkpt lat="48.23839" lon="7.11638">
        <ele>786</ele>
        <time>2026-07-09T13:33:27.000Z</time>
      </trkpt>
      <trkpt lat="48.23819" lon="7.1162">
        <ele>788</ele>
        <time>2026-07-09T13:34:13.000Z</time>
      </trkpt>
      <trkpt lat="48.23804" lon="7.11618">
        <ele>790</ele>
        <time>2026-07-09T13:34:51.000Z</time>
      </trkpt>
      <trkpt lat="48.2379" lon="7.11625">
        <ele>794</ele>
        <time>2026-07-09T13:35:49.000Z</time>
      </trkpt>
      <trkpt lat="48.23777" lon="7.11635">
        <ele>796</ele>
        <time>2026-07-09T13:36:26.000Z</time>
      </trkpt>
      <trkpt lat="48.23761" lon="7.11668">
        <ele>798</ele>
        <time>2026-07-09T13:37:18.000Z</time>
      </trkpt>
      <trkpt lat="48.23735" lon="7.11702">
        <ele>800</ele>
        <time>2026-07-09T13:38:18.000Z</time>
      </trkpt>
      <trkpt lat="48.23708" lon="7.11736">
        <ele>802</ele>
        <time>2026-07-09T13:39:18.000Z</time>
      </trkpt>
      <trkpt lat="48.23685" lon="7.11775">
        <ele>808</ele>
        <time>2026-07-09T13:41:00.000Z</time>
      </trkpt>
      <trkpt lat="48.23662" lon="7.11815">
        <ele>811</ele>
        <time>2026-07-09T13:42:11.000Z</time>
      </trkpt>
      <trkpt lat="48.23639" lon="7.11855">
        <ele>819</ele>
        <time>2026-07-09T13:44:13.000Z</time>
      </trkpt>
      <trkpt lat="48.23616" lon="7.11895">
        <ele>825</ele>
        <time>2026-07-09T13:45:55.000Z</time>
      </trkpt>
      <trkpt lat="48.23599" lon="7.11935">
        <ele>826</ele>
        <time>2026-07-09T13:46:42.000Z</time>
      </trkpt>
      <trkpt lat="48.23587" lon="7.1198">
        <ele>829</ele>
        <time>2026-07-09T13:47:50.000Z</time>
      </trkpt>
      <trkpt lat="48.23574" lon="7.12025">
        <ele>832</ele>
        <time>2026-07-09T13:48:58.000Z</time>
      </trkpt>
      <trkpt lat="48.23561" lon="7.12069">
        <ele>833</ele>
        <time>2026-07-09T13:49:45.000Z</time>
      </trkpt>
      <trkpt lat="48.23533" lon="7.12121">
        <ele>832</ele>
        <time>2026-07-09T13:50:36.000Z</time>
      </trkpt>
      <trkpt lat="48.23515" lon="7.1217">
        <ele>833</ele>
        <time>2026-07-09T13:51:29.000Z</time>
      </trkpt>
      <trkpt lat="48.23497" lon="7.12218">
        <ele>831</ele>
        <time>2026-07-09T13:52:11.000Z</time>
      </trkpt>
      <trkpt lat="48.23483" lon="7.12248">
        <ele>829</ele>
        <time>2026-07-09T13:52:39.000Z</time>
      </trkpt>
      <trkpt lat="48.23475" lon="7.12258">
        <ele>829</ele>
        <time>2026-07-09T13:52:50.000Z</time>
      </trkpt>
      <trkpt lat="48.23454" lon="7.12269">
        <ele>829</ele>
        <time>2026-07-09T13:53:15.000Z</time>
      </trkpt>
      <trkpt lat="48.23426" lon="7.12276">
        <ele>830</ele>
        <time>2026-07-09T13:53:58.000Z</time>
      </trkpt>
      <trkpt lat="48.23398" lon="7.12278">
        <ele>833</ele>
        <time>2026-07-09T13:55:01.000Z</time>
      </trkpt>
      <trkpt lat="48.23394" lon="7.12299">
        <ele>834</ele>
        <time>2026-07-09T13:55:28.000Z</time>
      </trkpt>
      <trkpt lat="48.23398" lon="7.12277">
        <ele>833</ele>
        <time>2026-07-09T13:55:45.000Z</time>
      </trkpt>
      <trkpt lat="48.23393" lon="7.12254">
        <ele>833</ele>
        <time>2026-07-09T13:56:04.000Z</time>
      </trkpt>
      <trkpt lat="48.23383" lon="7.12229">
        <ele>831</ele>
        <time>2026-07-09T13:56:26.000Z</time>
      </trkpt>
      <trkpt lat="48.23363" lon="7.12187">
        <ele>829</ele>
        <time>2026-07-09T13:57:06.000Z</time>
      </trkpt>
      <trkpt lat="48.23342" lon="7.12144">
        <ele>828</ele>
        <time>2026-07-09T13:57:46.000Z</time>
      </trkpt>
      <trkpt lat="48.23331" lon="7.1211">
        <ele>826</ele>
        <time>2026-07-09T13:58:15.000Z</time>
      </trkpt>
      <trkpt lat="48.23319" lon="7.12076">
        <ele>826</ele>
        <time>2026-07-09T13:58:44.000Z</time>
      </trkpt>
      <trkpt lat="48.23309" lon="7.12034">
        <ele>822</ele>
        <time>2026-07-09T13:59:18.000Z</time>
      </trkpt>
      <trkpt lat="48.23298" lon="7.12014">
        <ele>824</ele>
        <time>2026-07-09T13:59:59.000Z</time>
      </trkpt>
      <trkpt lat="48.23274" lon="7.11987">
        <ele>820</ele>
        <time>2026-07-09T14:00:34.000Z</time>
      </trkpt>
      <trkpt lat="48.23243" lon="7.11969">
        <ele>819</ele>
        <time>2026-07-09T14:01:12.000Z</time>
      </trkpt>
      <trkpt lat="48.2321" lon="7.11963">
        <ele>818</ele>
        <time>2026-07-09T14:01:50.000Z</time>
      </trkpt>
      <trkpt lat="48.23184" lon="7.11962">
        <ele>816</ele>
        <time>2026-07-09T14:02:20.000Z</time>
      </trkpt>
      <trkpt lat="48.23158" lon="7.11961">
        <ele>815</ele>
        <time>2026-07-09T14:02:50.000Z</time>
      </trkpt>
      <trkpt lat="48.23128" lon="7.11964">
        <ele>812</ele>
        <time>2026-07-09T14:03:24.000Z</time>
      </trkpt>
      <trkpt lat="48.23099" lon="7.11967">
        <ele>811</ele>
        <time>2026-07-09T14:03:58.000Z</time>
      </trkpt>
      <trkpt lat="48.23066" lon="7.11966">
        <ele>809</ele>
        <time>2026-07-09T14:04:35.000Z</time>
      </trkpt>
      <trkpt lat="48.23047" lon="7.1196">
        <ele>808</ele>
        <time>2026-07-09T14:04:58.000Z</time>
      </trkpt>
      <trkpt lat="48.23034" lon="7.11947">
        <ele>808</ele>
        <time>2026-07-09T14:05:15.000Z</time>
      </trkpt>
      <trkpt lat="48.23026" lon="7.11923">
        <ele>805</ele>
        <time>2026-07-09T14:05:35.000Z</time>
      </trkpt>
      <trkpt lat="48.23017" lon="7.11877">
        <ele>804</ele>
        <time>2026-07-09T14:06:11.000Z</time>
      </trkpt>
      <trkpt lat="48.23016" lon="7.11839">
        <ele>802</ele>
        <time>2026-07-09T14:06:40.000Z</time>
      </trkpt>
      <trkpt lat="48.23015" lon="7.118">
        <ele>800</ele>
        <time>2026-07-09T14:07:09.000Z</time>
      </trkpt>
      <trkpt lat="48.2302" lon="7.11738">
        <ele>798</ele>
        <time>2026-07-09T14:07:57.000Z</time>
      </trkpt>
      <trkpt lat="48.23024" lon="7.11707">
        <ele>795</ele>
        <time>2026-07-09T14:08:21.000Z</time>
      </trkpt>
      <trkpt lat="48.23036" lon="7.11674">
        <ele>795</ele>
        <time>2026-07-09T14:08:50.000Z</time>
      </trkpt>
      <trkpt lat="48.23048" lon="7.11641">
        <ele>795</ele>
        <time>2026-07-09T14:09:19.000Z</time>
      </trkpt>
      <trkpt lat="48.23075" lon="7.11594">
        <ele>793</ele>
        <time>2026-07-09T14:10:06.000Z</time>
      </trkpt>
      <trkpt lat="48.23101" lon="7.11547">
        <ele>790</ele>
        <time>2026-07-09T14:10:53.000Z</time>
      </trkpt>
      <trkpt lat="48.23107" lon="7.11532">
        <ele>790</ele>
        <time>2026-07-09T14:11:06.000Z</time>
      </trkpt>
      <trkpt lat="48.23111" lon="7.11498">
        <ele>788</ele>
        <time>2026-07-09T14:11:33.000Z</time>
      </trkpt>
      <trkpt lat="48.23106" lon="7.11452">
        <ele>786</ele>
        <time>2026-07-09T14:12:09.000Z</time>
      </trkpt>
      <trkpt lat="48.23102" lon="7.11441">
        <ele>784</ele>
        <time>2026-07-09T14:12:19.000Z</time>
      </trkpt>
      <trkpt lat="48.23076" lon="7.11424">
        <ele>787</ele>
        <time>2026-07-09T14:13:22.000Z</time>
      </trkpt>
      <trkpt lat="48.2305" lon="7.11407">
        <ele>787</ele>
        <time>2026-07-09T14:13:54.000Z</time>
      </trkpt>
      <trkpt lat="48.23014" lon="7.1139">
        <ele>786</ele>
        <time>2026-07-09T14:14:37.000Z</time>
      </trkpt>
      <trkpt lat="48.2298" lon="7.1138">
        <ele>787</ele>
        <time>2026-07-09T14:15:27.000Z</time>
      </trkpt>
      <trkpt lat="48.22946" lon="7.11371">
        <ele>786</ele>
        <time>2026-07-09T14:16:07.000Z</time>
      </trkpt>
      <trkpt lat="48.22912" lon="7.11361">
        <ele>786</ele>
        <time>2026-07-09T14:16:47.000Z</time>
      </trkpt>
      <trkpt lat="48.22879" lon="7.11358">
        <ele>785</ele>
        <time>2026-07-09T14:17:25.000Z</time>
      </trkpt>
      <trkpt lat="48.22846" lon="7.11355">
        <ele>786</ele>
        <time>2026-07-09T14:18:13.000Z</time>
      </trkpt>
      <trkpt lat="48.22813" lon="7.11352">
        <ele>785</ele>
        <time>2026-07-09T14:18:51.000Z</time>
      </trkpt>
      <trkpt lat="48.2278" lon="7.11356">
        <ele>786</ele>
        <time>2026-07-09T14:19:39.000Z</time>
      </trkpt>
      <trkpt lat="48.22746" lon="7.1136">
        <ele>787</ele>
        <time>2026-07-09T14:20:27.000Z</time>
      </trkpt>
      <trkpt lat="48.22713" lon="7.11364">
        <ele>787</ele>
        <time>2026-07-09T14:21:05.000Z</time>
      </trkpt>
      <trkpt lat="48.22688" lon="7.11383">
        <ele>787</ele>
        <time>2026-07-09T14:21:38.000Z</time>
      </trkpt>
      <trkpt lat="48.22655" lon="7.11422">
        <ele>788</ele>
        <time>2026-07-09T14:22:36.000Z</time>
      </trkpt>
      <trkpt lat="48.22641" lon="7.11427">
        <ele>787</ele>
        <time>2026-07-09T14:22:52.000Z</time>
      </trkpt>
      <trkpt lat="48.22633" lon="7.11418">
        <ele>787</ele>
        <time>2026-07-09T14:23:04.000Z</time>
      </trkpt>
      <trkpt lat="48.22626" lon="7.11369">
        <ele>788</ele>
        <time>2026-07-09T14:23:53.000Z</time>
      </trkpt>
      <trkpt lat="48.22627" lon="7.11324">
        <ele>787</ele>
        <time>2026-07-09T14:24:27.000Z</time>
      </trkpt>
      <trkpt lat="48.22639" lon="7.11283">
        <ele>786</ele>
        <time>2026-07-09T14:25:01.000Z</time>
      </trkpt>
      <trkpt lat="48.22666" lon="7.11234">
        <ele>787</ele>
        <time>2026-07-09T14:25:59.000Z</time>
      </trkpt>
      <trkpt lat="48.22688" lon="7.11201">
        <ele>788</ele>
        <time>2026-07-09T14:26:45.000Z</time>
      </trkpt>
      <trkpt lat="48.2271" lon="7.11168">
        <ele>787</ele>
        <time>2026-07-09T14:27:21.000Z</time>
      </trkpt>
      <trkpt lat="48.22727" lon="7.11134">
        <ele>787</ele>
        <time>2026-07-09T14:27:53.000Z</time>
      </trkpt>
      <trkpt lat="48.22743" lon="7.11101">
        <ele>787</ele>
        <time>2026-07-09T14:28:25.000Z</time>
      </trkpt>
      <trkpt lat="48.2278" lon="7.1108">
        <ele>787</ele>
        <time>2026-07-09T14:29:10.000Z</time>
      </trkpt>
      <trkpt lat="48.22817" lon="7.11058">
        <ele>788</ele>
        <time>2026-07-09T14:30:05.000Z</time>
      </trkpt>
      <trkpt lat="48.22853" lon="7.11037">
        <ele>787</ele>
        <time>2026-07-09T14:30:50.000Z</time>
      </trkpt>
      <trkpt lat="48.22887" lon="7.11006">
        <ele>787</ele>
        <time>2026-07-09T14:31:35.000Z</time>
      </trkpt>
      <trkpt lat="48.22921" lon="7.10975">
        <ele>787</ele>
        <time>2026-07-09T14:32:20.000Z</time>
      </trkpt>
      <trkpt lat="48.22956" lon="7.10958">
        <ele>785</ele>
        <time>2026-07-09T14:33:02.000Z</time>
      </trkpt>
      <trkpt lat="48.22987" lon="7.1092">
        <ele>786</ele>
        <time>2026-07-09T14:33:59.000Z</time>
      </trkpt>
      <trkpt lat="48.23002" lon="7.10894">
        <ele>785</ele>
        <time>2026-07-09T14:34:25.000Z</time>
      </trkpt>
      <trkpt lat="48.23004" lon="7.10879">
        <ele>785</ele>
        <time>2026-07-09T14:34:37.000Z</time>
      </trkpt>
      <trkpt lat="48.2302" lon="7.10877">
        <ele>784</ele>
        <time>2026-07-09T14:34:55.000Z</time>
      </trkpt>
      <trkpt lat="48.23004" lon="7.10879">
        <ele>785</ele>
        <time>2026-07-09T14:35:23.000Z</time>
      </trkpt>
      <trkpt lat="48.23003" lon="7.10873">
        <ele>785</ele>
        <time>2026-07-09T14:35:28.000Z</time>
      </trkpt>
      <trkpt lat="48.23" lon="7.10869">
        <ele>785</ele>
        <time>2026-07-09T14:35:33.000Z</time>
      </trkpt>
      <trkpt lat="48.22975" lon="7.10862">
        <ele>787</ele>
        <time>2026-07-09T14:36:22.000Z</time>
      </trkpt>
      <trkpt lat="48.22951" lon="7.10856">
        <ele>788</ele>
        <time>2026-07-09T14:37:00.000Z</time>
      </trkpt>
      <trkpt lat="48.22929" lon="7.10845">
        <ele>789</ele>
        <time>2026-07-09T14:37:37.000Z</time>
      </trkpt>
      <trkpt lat="48.22908" lon="7.10834">
        <ele>791</ele>
        <time>2026-07-09T14:38:24.000Z</time>
      </trkpt>
      <trkpt lat="48.22882" lon="7.10815">
        <ele>793</ele>
        <time>2026-07-09T14:39:18.000Z</time>
      </trkpt>
      <trkpt lat="48.22855" lon="7.10788">
        <ele>798</ele>
        <time>2026-07-09T14:40:46.000Z</time>
      </trkpt>
      <trkpt lat="48.2283" lon="7.10752">
        <ele>796</ele>
        <time>2026-07-09T14:41:26.000Z</time>
      </trkpt>
      <trkpt lat="48.22806" lon="7.10715">
        <ele>801</ele>
        <time>2026-07-09T14:42:57.000Z</time>
      </trkpt>
      <trkpt lat="48.22793" lon="7.10687">
        <ele>801</ele>
        <time>2026-07-09T14:43:23.000Z</time>
      </trkpt>
      <trkpt lat="48.2278" lon="7.10659">
        <ele>802</ele>
        <time>2026-07-09T14:43:59.000Z</time>
      </trkpt>
      <trkpt lat="48.22767" lon="7.10622">
        <ele>804</ele>
        <time>2026-07-09T14:44:51.000Z</time>
      </trkpt>
      <trkpt lat="48.22753" lon="7.10585">
        <ele>807</ele>
        <time>2026-07-09T14:45:54.000Z</time>
      </trkpt>
      <trkpt lat="48.22738" lon="7.10523">
        <ele>810</ele>
        <time>2026-07-09T14:47:15.000Z</time>
      </trkpt>
      <trkpt lat="48.22724" lon="7.10461">
        <ele>812</ele>
        <time>2026-07-09T14:48:26.000Z</time>
      </trkpt>
      <trkpt lat="48.22718" lon="7.10412">
        <ele>814</ele>
        <time>2026-07-09T14:49:24.000Z</time>
      </trkpt>
      <trkpt lat="48.22713" lon="7.10363">
        <ele>814</ele>
        <time>2026-07-09T14:50:02.000Z</time>
      </trkpt>
      <trkpt lat="48.22713" lon="7.10327">
        <ele>817</ele>
        <time>2026-07-09T14:51:00.000Z</time>
      </trkpt>
      <trkpt lat="48.22713" lon="7.10291">
        <ele>818</ele>
        <time>2026-07-09T14:51:38.000Z</time>
      </trkpt>
      <trkpt lat="48.22722" lon="7.10241">
        <ele>818</ele>
        <time>2026-07-09T14:52:18.000Z</time>
      </trkpt>
      <trkpt lat="48.22731" lon="7.1019">
        <ele>826</ele>
        <time>2026-07-09T14:54:20.000Z</time>
      </trkpt>
      <trkpt lat="48.22736" lon="7.10127">
        <ele>828</ele>
        <time>2026-07-09T14:55:29.000Z</time>
      </trkpt>
      <trkpt lat="48.22733" lon="7.1011">
        <ele>828</ele>
        <time>2026-07-09T14:55:43.000Z</time>
      </trkpt>
      <trkpt lat="48.22726" lon="7.10101">
        <ele>829</ele>
        <time>2026-07-09T14:56:04.000Z</time>
      </trkpt>
      <trkpt lat="48.22704" lon="7.10099">
        <ele>829</ele>
        <time>2026-07-09T14:56:29.000Z</time>
      </trkpt>
      <trkpt lat="48.22682" lon="7.10107">
        <ele>828</ele>
        <time>2026-07-09T14:56:55.000Z</time>
      </trkpt>
      <trkpt lat="48.2266" lon="7.10116">
        <ele>828</ele>
        <time>2026-07-09T14:57:21.000Z</time>
      </trkpt>
      <trkpt lat="48.22625" lon="7.1014">
        <ele>825</ele>
        <time>2026-07-09T14:58:06.000Z</time>
      </trkpt>
      <trkpt lat="48.22594" lon="7.10167">
        <ele>824</ele>
        <time>2026-07-09T14:58:47.000Z</time>
      </trkpt>
      <trkpt lat="48.22569" lon="7.10199">
        <ele>823</ele>
        <time>2026-07-09T14:59:24.000Z</time>
      </trkpt>
      <trkpt lat="48.22545" lon="7.1023">
        <ele>819</ele>
        <time>2026-07-09T15:00:01.000Z</time>
      </trkpt>
      <trkpt lat="48.22523" lon="7.10277">
        <ele>816</ele>
        <time>2026-07-09T15:00:44.000Z</time>
      </trkpt>
      <trkpt lat="48.22502" lon="7.10324">
        <ele>811</ele>
        <time>2026-07-09T15:01:27.000Z</time>
      </trkpt>
      <trkpt lat="48.22481" lon="7.1037">
        <ele>808</ele>
        <time>2026-07-09T15:02:10.000Z</time>
      </trkpt>
      <trkpt lat="48.22462" lon="7.10416">
        <ele>808</ele>
        <time>2026-07-09T15:02:51.000Z</time>
      </trkpt>
      <trkpt lat="48.22444" lon="7.10462">
        <ele>806</ele>
        <time>2026-07-09T15:03:32.000Z</time>
      </trkpt>
      <trkpt lat="48.22437" lon="7.10523">
        <ele>807</ele>
        <time>2026-07-09T15:04:30.000Z</time>
      </trkpt>
      <trkpt lat="48.2243" lon="7.10585">
        <ele>807</ele>
        <time>2026-07-09T15:05:18.000Z</time>
      </trkpt>
      <trkpt lat="48.22425" lon="7.10592">
        <ele>806</ele>
        <time>2026-07-09T15:05:25.000Z</time>
      </trkpt>
      <trkpt lat="48.22401" lon="7.10584">
        <ele>795</ele>
        <time>2026-07-09T15:05:54.000Z</time>
      </trkpt>
      <trkpt lat="48.22402" lon="7.10569">
        <ele>793</ele>
        <time>2026-07-09T15:06:05.000Z</time>
      </trkpt>
      <trkpt lat="48.22405" lon="7.10524">
        <ele>791</ele>
        <time>2026-07-09T15:06:40.000Z</time>
      </trkpt>
      <trkpt lat="48.22407" lon="7.10479">
        <ele>790</ele>
        <time>2026-07-09T15:07:15.000Z</time>
      </trkpt>
      <trkpt lat="48.2241" lon="7.10433">
        <ele>786</ele>
        <time>2026-07-09T15:07:50.000Z</time>
      </trkpt>
      <trkpt lat="48.22418" lon="7.10376">
        <ele>781</ele>
        <time>2026-07-09T15:08:34.000Z</time>
      </trkpt>
      <trkpt lat="48.2243" lon="7.10325">
        <ele>778</ele>
        <time>2026-07-09T15:09:15.000Z</time>
      </trkpt>
      <trkpt lat="48.22442" lon="7.10274">
        <ele>774</ele>
        <time>2026-07-09T15:09:56.000Z</time>
      </trkpt>
      <trkpt lat="48.2245" lon="7.10223">
        <ele>770</ele>
        <time>2026-07-09T15:10:36.000Z</time>
      </trkpt>
      <trkpt lat="48.22459" lon="7.10171">
        <ele>767</ele>
        <time>2026-07-09T15:11:16.000Z</time>
      </trkpt>
      <trkpt lat="48.22467" lon="7.10137">
        <ele>766</ele>
        <time>2026-07-09T15:11:44.000Z</time>
      </trkpt>
      <trkpt lat="48.22475" lon="7.10102">
        <ele>763</ele>
        <time>2026-07-09T15:12:12.000Z</time>
      </trkpt>
      <trkpt lat="48.22484" lon="7.1007">
        <ele>758</ele>
        <time>2026-07-09T15:12:39.000Z</time>
      </trkpt>
      <trkpt lat="48.22494" lon="7.10037">
        <ele>756</ele>
        <time>2026-07-09T15:13:06.000Z</time>
      </trkpt>
      <trkpt lat="48.22511" lon="7.09999">
        <ele>754</ele>
        <time>2026-07-09T15:13:41.000Z</time>
      </trkpt>
      <trkpt lat="48.22528" lon="7.0996">
        <ele>751</ele>
        <time>2026-07-09T15:14:16.000Z</time>
      </trkpt>
      <trkpt lat="48.2255" lon="7.0993">
        <ele>748</ele>
        <time>2026-07-09T15:14:50.000Z</time>
      </trkpt>
      <trkpt lat="48.22573" lon="7.09906">
        <ele>744</ele>
        <time>2026-07-09T15:15:22.000Z</time>
      </trkpt>
      <trkpt lat="48.22596" lon="7.09881">
        <ele>741</ele>
        <time>2026-07-09T15:15:54.000Z</time>
      </trkpt>
      <trkpt lat="48.22616" lon="7.09848">
        <ele>739</ele>
        <time>2026-07-09T15:16:28.000Z</time>
      </trkpt>
      <trkpt lat="48.22635" lon="7.09816">
        <ele>737</ele>
        <time>2026-07-09T15:17:02.000Z</time>
      </trkpt>
      <trkpt lat="48.22625" lon="7.09823">
        <ele>736</ele>
        <time>2026-07-09T15:17:15.000Z</time>
      </trkpt>
      <trkpt lat="48.22601" lon="7.09842">
        <ele>735</ele>
        <time>2026-07-09T15:17:47.000Z</time>
      </trkpt>
      <trkpt lat="48.2256" lon="7.09862">
        <ele>730</ele>
        <time>2026-07-09T15:18:36.000Z</time>
      </trkpt>
      <trkpt lat="48.22519" lon="7.09881">
        <ele>727</ele>
        <time>2026-07-09T15:19:25.000Z</time>
      </trkpt>
      <trkpt lat="48.22496" lon="7.09901">
        <ele>726</ele>
        <time>2026-07-09T15:19:55.000Z</time>
      </trkpt>
      <trkpt lat="48.22474" lon="7.09921">
        <ele>724</ele>
        <time>2026-07-09T15:20:25.000Z</time>
      </trkpt>
      <trkpt lat="48.22454" lon="7.09947">
        <ele>722</ele>
        <time>2026-07-09T15:20:55.000Z</time>
      </trkpt>
      <trkpt lat="48.22435" lon="7.09974">
        <ele>719</ele>
        <time>2026-07-09T15:21:25.000Z</time>
      </trkpt>
      <trkpt lat="48.22412" lon="7.10026">
        <ele>717</ele>
        <time>2026-07-09T15:22:13.000Z</time>
      </trkpt>
      <trkpt lat="48.22388" lon="7.10078">
        <ele>713</ele>
        <time>2026-07-09T15:23:01.000Z</time>
      </trkpt>
      <trkpt lat="48.22365" lon="7.1013">
        <ele>710</ele>
        <time>2026-07-09T15:23:49.000Z</time>
      </trkpt>
      <trkpt lat="48.22341" lon="7.10182">
        <ele>710</ele>
        <time>2026-07-09T15:24:37.000Z</time>
      </trkpt>
      <trkpt lat="48.22314" lon="7.10211">
        <ele>706</ele>
        <time>2026-07-09T15:25:15.000Z</time>
      </trkpt>
      <trkpt lat="48.22287" lon="7.10239">
        <ele>705</ele>
        <time>2026-07-09T15:25:53.000Z</time>
      </trkpt>
      <trkpt lat="48.22259" lon="7.10267">
        <ele>700</ele>
        <time>2026-07-09T15:26:31.000Z</time>
      </trkpt>
      <trkpt lat="48.22248" lon="7.10269">
        <ele>699</ele>
        <time>2026-07-09T15:26:44.000Z</time>
      </trkpt>
      <trkpt lat="48.2224" lon="7.10262">
        <ele>697</ele>
        <time>2026-07-09T15:26:54.000Z</time>
      </trkpt>
      <trkpt lat="48.22232" lon="7.10248">
        <ele>695</ele>
        <time>2026-07-09T15:27:08.000Z</time>
      </trkpt>
      <trkpt lat="48.22219" lon="7.10217">
        <ele>694</ele>
        <time>2026-07-09T15:27:36.000Z</time>
      </trkpt>
      <trkpt lat="48.22207" lon="7.10186">
        <ele>691</ele>
        <time>2026-07-09T15:28:04.000Z</time>
      </trkpt>
      <trkpt lat="48.22185" lon="7.1015">
        <ele>689</ele>
        <time>2026-07-09T15:28:41.000Z</time>
      </trkpt>
      <trkpt lat="48.22174" lon="7.10145">
        <ele>688</ele>
        <time>2026-07-09T15:28:55.000Z</time>
      </trkpt>
      <trkpt lat="48.22163" lon="7.10146">
        <ele>687</ele>
        <time>2026-07-09T15:29:07.000Z</time>
      </trkpt>
      <trkpt lat="48.22142" lon="7.10166">
        <ele>685</ele>
        <time>2026-07-09T15:29:36.000Z</time>
      </trkpt>
      <trkpt lat="48.22123" lon="7.10201">
        <ele>679</ele>
        <time>2026-07-09T15:30:10.000Z</time>
      </trkpt>
      <trkpt lat="48.22113" lon="7.10243">
        <ele>677</ele>
        <time>2026-07-09T15:30:44.000Z</time>
      </trkpt>
      <trkpt lat="48.22103" lon="7.10286">
        <ele>677</ele>
        <time>2026-07-09T15:31:18.000Z</time>
      </trkpt>
      <trkpt lat="48.22093" lon="7.10329">
        <ele>675</ele>
        <time>2026-07-09T15:31:52.000Z</time>
      </trkpt>
      <trkpt lat="48.22078" lon="7.10378">
        <ele>672</ele>
        <time>2026-07-09T15:32:33.000Z</time>
      </trkpt>
      <trkpt lat="48.22063" lon="7.10427">
        <ele>670</ele>
        <time>2026-07-09T15:33:14.000Z</time>
      </trkpt>
      <trkpt lat="48.22048" lon="7.10476">
        <ele>671</ele>
        <time>2026-07-09T15:34:06.000Z</time>
      </trkpt>
      <trkpt lat="48.2204" lon="7.10525">
        <ele>667</ele>
        <time>2026-07-09T15:34:44.000Z</time>
      </trkpt>
      <trkpt lat="48.22032" lon="7.10573">
        <ele>659</ele>
        <time>2026-07-09T15:35:22.000Z</time>
      </trkpt>
      <trkpt lat="48.22024" lon="7.10621">
        <ele>654</ele>
        <time>2026-07-09T15:36:00.000Z</time>
      </trkpt>
      <trkpt lat="48.22021" lon="7.10631">
        <ele>653</ele>
        <time>2026-07-09T15:36:08.000Z</time>
      </trkpt>
      <trkpt lat="48.22016" lon="7.10637">
        <ele>652</ele>
        <time>2026-07-09T15:36:16.000Z</time>
      </trkpt>
      <trkpt lat="48.2201" lon="7.10635">
        <ele>651</ele>
        <time>2026-07-09T15:36:23.000Z</time>
      </trkpt>
      <trkpt lat="48.21997" lon="7.10617">
        <ele>650</ele>
        <time>2026-07-09T15:36:43.000Z</time>
      </trkpt>
      <trkpt lat="48.22009" lon="7.10635">
        <ele>651</ele>
        <time>2026-07-09T15:37:13.000Z</time>
      </trkpt>
      <trkpt lat="48.22016" lon="7.10637">
        <ele>652</ele>
        <time>2026-07-09T15:37:31.000Z</time>
      </trkpt>
      <trkpt lat="48.22021" lon="7.10687">
        <ele>654</ele>
        <time>2026-07-09T15:38:30.000Z</time>
      </trkpt>
      <trkpt lat="48.22026" lon="7.10738">
        <ele>659</ele>
        <time>2026-07-09T15:40:00.000Z</time>
      </trkpt>
      <trkpt lat="48.22035" lon="7.10778">
        <ele>664</ele>
        <time>2026-07-09T15:41:24.000Z</time>
      </trkpt>
      <trkpt lat="48.22031" lon="7.10839">
        <ele>670</ele>
        <time>2026-07-09T15:43:13.000Z</time>
      </trkpt>
      <trkpt lat="48.22027" lon="7.10901">
        <ele>677</ele>
        <time>2026-07-09T15:45:12.000Z</time>
      </trkpt>
      <trkpt lat="48.22028" lon="7.10943">
        <ele>682</ele>
        <time>2026-07-09T15:46:36.000Z</time>
      </trkpt>
      <trkpt lat="48.22034" lon="7.1098">
        <ele>687</ele>
        <time>2026-07-09T15:47:56.000Z</time>
      </trkpt>
      <trkpt lat="48.22041" lon="7.11016">
        <ele>689</ele>
        <time>2026-07-09T15:48:45.000Z</time>
      </trkpt>
      <trkpt lat="48.22055" lon="7.11056">
        <ele>693</ele>
        <time>2026-07-09T15:50:01.000Z</time>
      </trkpt>
      <trkpt lat="48.22068" lon="7.11097">
        <ele>698</ele>
        <time>2026-07-09T15:51:27.000Z</time>
      </trkpt>
      <trkpt lat="48.22079" lon="7.11143">
        <ele>702</ele>
        <time>2026-07-09T15:52:46.000Z</time>
      </trkpt>
      <trkpt lat="48.22089" lon="7.1119">
        <ele>708</ele>
        <time>2026-07-09T15:54:25.000Z</time>
      </trkpt>
      <trkpt lat="48.22088" lon="7.11249">
        <ele>715</ele>
        <time>2026-07-09T15:56:22.000Z</time>
      </trkpt>
      <trkpt lat="48.22087" lon="7.11308">
        <ele>722</ele>
        <time>2026-07-09T15:58:19.000Z</time>
      </trkpt>
      <trkpt lat="48.22087" lon="7.11368">
        <ele>729</ele>
        <time>2026-07-09T16:00:16.000Z</time>
      </trkpt>
      <trkpt lat="48.22088" lon="7.11383">
        <ele>732</ele>
        <time>2026-07-09T16:00:58.000Z</time>
      </trkpt>
      <trkpt lat="48.22094" lon="7.11393">
        <ele>736</ele>
        <time>2026-07-09T16:01:50.000Z</time>
      </trkpt>
      <trkpt lat="48.22097" lon="7.11439">
        <ele>741</ele>
        <time>2026-07-09T16:03:16.000Z</time>
      </trkpt>
      <trkpt lat="48.22099" lon="7.11485">
        <ele>745</ele>
        <time>2026-07-09T16:04:32.000Z</time>
      </trkpt>
      <trkpt lat="48.221" lon="7.11542">
        <ele>755</ele>
        <time>2026-07-09T16:06:59.000Z</time>
      </trkpt>
      <trkpt lat="48.221" lon="7.116">
        <ele>763</ele>
        <time>2026-07-09T16:09:05.000Z</time>
      </trkpt>
      <trkpt lat="48.22106" lon="7.11648">
        <ele>773</ele>
        <time>2026-07-09T16:11:25.000Z</time>
      </trkpt>
      <trkpt lat="48.22105" lon="7.11663">
        <ele>775</ele>
        <time>2026-07-09T16:11:58.000Z</time>
      </trkpt>
      <trkpt lat="48.22095" lon="7.11696">
        <ele>778</ele>
        <time>2026-07-09T16:12:56.000Z</time>
      </trkpt>
      <trkpt lat="48.22089" lon="7.11748">
        <ele>783</ele>
        <time>2026-07-09T16:14:27.000Z</time>
      </trkpt>
      <trkpt lat="48.22087" lon="7.11773">
        <ele>786</ele>
        <time>2026-07-09T16:15:17.000Z</time>
      </trkpt>
      <trkpt lat="48.2209" lon="7.11817">
        <ele>796</ele>
        <time>2026-07-09T16:17:34.000Z</time>
      </trkpt>
      <trkpt lat="48.22092" lon="7.11819">
        <ele>798</ele>
        <time>2026-07-09T16:17:58.000Z</time>
      </trkpt>
      <trkpt lat="48.22099" lon="7.11811">
        <ele>798</ele>
        <time>2026-07-09T16:18:08.000Z</time>
      </trkpt>
      <trkpt lat="48.22114" lon="7.1181">
        <ele>802</ele>
        <time>2026-07-09T16:19:06.000Z</time>
      </trkpt>
      <trkpt lat="48.22125" lon="7.11795">
        <ele>803</ele>
        <time>2026-07-09T16:19:33.000Z</time>
      </trkpt>
      <trkpt lat="48.2214" lon="7.11756">
        <ele>805</ele>
        <time>2026-07-09T16:20:28.000Z</time>
      </trkpt>
      <trkpt lat="48.22155" lon="7.11716">
        <ele>803</ele>
        <time>2026-07-09T16:21:03.000Z</time>
      </trkpt>
      <trkpt lat="48.22176" lon="7.11675">
        <ele>805</ele>
        <time>2026-07-09T16:22:04.000Z</time>
      </trkpt>
      <trkpt lat="48.22186" lon="7.11644">
        <ele>807</ele>
        <time>2026-07-09T16:22:51.000Z</time>
      </trkpt>
      <trkpt lat="48.22196" lon="7.11613">
        <ele>806</ele>
        <time>2026-07-09T16:23:17.000Z</time>
      </trkpt>
      <trkpt lat="48.22215" lon="7.11569">
        <ele>808</ele>
        <time>2026-07-09T16:24:17.000Z</time>
      </trkpt>
      <trkpt lat="48.22218" lon="7.11558">
        <ele>809</ele>
        <time>2026-07-09T16:24:36.000Z</time>
      </trkpt>
      <trkpt lat="48.22223" lon="7.11502">
        <ele>809</ele>
        <time>2026-07-09T16:25:19.000Z</time>
      </trkpt>
      <trkpt lat="48.22227" lon="7.11445">
        <ele>809</ele>
        <time>2026-07-09T16:26:03.000Z</time>
      </trkpt>
      <trkpt lat="48.22233" lon="7.11403">
        <ele>810</ele>
        <time>2026-07-09T16:26:46.000Z</time>
      </trkpt>
      <trkpt lat="48.22238" lon="7.1136">
        <ele>805</ele>
        <time>2026-07-09T16:27:19.000Z</time>
      </trkpt>
      <trkpt lat="48.22251" lon="7.11312">
        <ele>807</ele>
        <time>2026-07-09T16:28:19.000Z</time>
      </trkpt>
      <trkpt lat="48.22263" lon="7.11264">
        <ele>807</ele>
        <time>2026-07-09T16:28:59.000Z</time>
      </trkpt>
      <trkpt lat="48.22277" lon="7.11228">
        <ele>808</ele>
        <time>2026-07-09T16:29:40.000Z</time>
      </trkpt>
      <trkpt lat="48.2229" lon="7.11192">
        <ele>809</ele>
        <time>2026-07-09T16:30:22.000Z</time>
      </trkpt>
      <trkpt lat="48.223" lon="7.11151">
        <ele>807</ele>
        <time>2026-07-09T16:30:56.000Z</time>
      </trkpt>
      <trkpt lat="48.22301" lon="7.111">
        <ele>806</ele>
        <time>2026-07-09T16:31:35.000Z</time>
      </trkpt>
      <trkpt lat="48.22292" lon="7.11068">
        <ele>810</ele>
        <time>2026-07-09T16:32:42.000Z</time>
      </trkpt>
      <trkpt lat="48.22283" lon="7.11036">
        <ele>809</ele>
        <time>2026-07-09T16:33:08.000Z</time>
      </trkpt>
      <trkpt lat="48.22279" lon="7.10992">
        <ele>809</ele>
        <time>2026-07-09T16:33:42.000Z</time>
      </trkpt>
      <trkpt lat="48.22274" lon="7.10947">
        <ele>808</ele>
        <time>2026-07-09T16:34:16.000Z</time>
      </trkpt>
      <trkpt lat="48.22274" lon="7.1092">
        <ele>807</ele>
        <time>2026-07-09T16:34:37.000Z</time>
      </trkpt>
      <trkpt lat="48.22278" lon="7.10872">
        <ele>808</ele>
        <time>2026-07-09T16:35:25.000Z</time>
      </trkpt>
      <trkpt lat="48.22283" lon="7.10823">
        <ele>808</ele>
        <time>2026-07-09T16:36:03.000Z</time>
      </trkpt>
      <trkpt lat="48.22286" lon="7.10768">
        <ele>809</ele>
        <time>2026-07-09T16:36:55.000Z</time>
      </trkpt>
      <trkpt lat="48.2229" lon="7.10714">
        <ele>809</ele>
        <time>2026-07-09T16:37:37.000Z</time>
      </trkpt>
      <trkpt lat="48.22295" lon="7.10701">
        <ele>808</ele>
        <time>2026-07-09T16:37:48.000Z</time>
      </trkpt>
      <trkpt lat="48.22295" lon="7.1073">
        <ele>810</ele>
        <time>2026-07-09T16:38:31.000Z</time>
      </trkpt>
      <trkpt lat="48.22298" lon="7.10778">
        <ele>813</ele>
        <time>2026-07-09T16:39:38.000Z</time>
      </trkpt>
      <trkpt lat="48.223" lon="7.10825">
        <ele>815</ele>
        <time>2026-07-09T16:40:35.000Z</time>
      </trkpt>
      <trkpt lat="48.22302" lon="7.10873">
        <ele>819</ele>
        <time>2026-07-09T16:41:53.000Z</time>
      </trkpt>
      <trkpt lat="48.22306" lon="7.1091">
        <ele>823</ele>
        <time>2026-07-09T16:43:03.000Z</time>
      </trkpt>
      <trkpt lat="48.2231" lon="7.10948">
        <ele>825</ele>
        <time>2026-07-09T16:43:52.000Z</time>
      </trkpt>
      <trkpt lat="48.22319" lon="7.10988">
        <ele>829</ele>
        <time>2026-07-09T16:45:06.000Z</time>
      </trkpt>
      <trkpt lat="48.22328" lon="7.11029">
        <ele>832</ele>
        <time>2026-07-09T16:46:09.000Z</time>
      </trkpt>
      <trkpt lat="48.22347" lon="7.11086">
        <ele>840</ele>
        <time>2026-07-09T16:48:20.000Z</time>
      </trkpt>
      <trkpt lat="48.22366" lon="7.11144">
        <ele>841</ele>
        <time>2026-07-09T16:49:19.000Z</time>
      </trkpt>
      <trkpt lat="48.22371" lon="7.11173">
        <ele>843</ele>
        <time>2026-07-09T16:50:02.000Z</time>
      </trkpt>
      <trkpt lat="48.22368" lon="7.11227">
        <ele>846</ele>
        <time>2026-07-09T16:51:14.000Z</time>
      </trkpt>
      <trkpt lat="48.22365" lon="7.11281">
        <ele>849</ele>
        <time>2026-07-09T16:52:26.000Z</time>
      </trkpt>
      <trkpt lat="48.22358" lon="7.11319">
        <ele>854</ele>
        <time>2026-07-09T16:53:48.000Z</time>
      </trkpt>
      <trkpt lat="48.22351" lon="7.11357">
        <ele>857</ele>
        <time>2026-07-09T16:54:49.000Z</time>
      </trkpt>
      <trkpt lat="48.22356" lon="7.11407">
        <ele>860</ele>
        <time>2026-07-09T16:55:58.000Z</time>
      </trkpt>
      <trkpt lat="48.2236" lon="7.11457">
        <ele>863</ele>
        <time>2026-07-09T16:57:07.000Z</time>
      </trkpt>
      <trkpt lat="48.22364" lon="7.11507">
        <ele>867</ele>
        <time>2026-07-09T16:58:27.000Z</time>
      </trkpt>
      <trkpt lat="48.22364" lon="7.11546">
        <ele>870</ele>
        <time>2026-07-09T16:59:28.000Z</time>
      </trkpt>
      <trkpt lat="48.22363" lon="7.11586">
        <ele>875</ele>
        <time>2026-07-09T17:00:50.000Z</time>
      </trkpt>
      <trkpt lat="48.22369" lon="7.11625">
        <ele>876</ele>
        <time>2026-07-09T17:01:31.000Z</time>
      </trkpt>
      <trkpt lat="48.22385" lon="7.11657">
        <ele>879</ele>
        <time>2026-07-09T17:02:32.000Z</time>
      </trkpt>
      <trkpt lat="48.22402" lon="7.11688">
        <ele>882</ele>
        <time>2026-07-09T17:03:34.000Z</time>
      </trkpt>
      <trkpt lat="48.2242" lon="7.11719">
        <ele>884</ele>
        <time>2026-07-09T17:04:26.000Z</time>
      </trkpt>
      <trkpt lat="48.22427" lon="7.11741">
        <ele>886</ele>
        <time>2026-07-09T17:05:05.000Z</time>
      </trkpt>
      <trkpt lat="48.22435" lon="7.1177">
        <ele>887</ele>
        <time>2026-07-09T17:05:39.000Z</time>
      </trkpt>
      <trkpt lat="48.22436" lon="7.11808">
        <ele>888</ele>
        <time>2026-07-09T17:06:18.000Z</time>
      </trkpt>
      <trkpt lat="48.22446" lon="7.1186">
        <ele>891</ele>
        <time>2026-07-09T17:07:31.000Z</time>
      </trkpt>
      <trkpt lat="48.22456" lon="7.11898">
        <ele>893</ele>
        <time>2026-07-09T17:08:22.000Z</time>
      </trkpt>
      <trkpt lat="48.22466" lon="7.11935">
        <ele>895</ele>
        <time>2026-07-09T17:09:13.000Z</time>
      </trkpt>
      <trkpt lat="48.22481" lon="7.11964">
        <ele>897</ele>
        <time>2026-07-09T17:10:01.000Z</time>
      </trkpt>
      <trkpt lat="48.22496" lon="7.11993">
        <ele>898</ele>
        <time>2026-07-09T17:10:39.000Z</time>
      </trkpt>
      <trkpt lat="48.22516" lon="7.12037">
        <ele>899</ele>
        <time>2026-07-09T17:11:30.000Z</time>
      </trkpt>
      <trkpt lat="48.22535" lon="7.1208">
        <ele>903</ele>
        <time>2026-07-09T17:12:52.000Z</time>
      </trkpt>
      <trkpt lat="48.22555" lon="7.12124">
        <ele>907</ele>
        <time>2026-07-09T17:14:14.000Z</time>
      </trkpt>
      <trkpt lat="48.22581" lon="7.12166">
        <ele>910</ele>
        <time>2026-07-09T17:15:28.000Z</time>
      </trkpt>
      <trkpt lat="48.2262" lon="7.12199">
        <ele>914</ele>
        <time>2026-07-09T17:17:00.000Z</time>
      </trkpt>
      <trkpt lat="48.22659" lon="7.12232">
        <ele>918</ele>
        <time>2026-07-09T17:18:32.000Z</time>
      </trkpt>
      <trkpt lat="48.22676" lon="7.12229">
        <ele>921</ele>
        <time>2026-07-09T17:19:22.000Z</time>
      </trkpt>
      <trkpt lat="48.22714" lon="7.12197">
        <ele>927</ele>
        <time>2026-07-09T17:21:14.000Z</time>
      </trkpt>
      <trkpt lat="48.22733" lon="7.12193">
        <ele>931</ele>
        <time>2026-07-09T17:22:16.000Z</time>
      </trkpt>
      <trkpt lat="48.22753" lon="7.12197">
        <ele>934</ele>
        <time>2026-07-09T17:23:11.000Z</time>
      </trkpt>
      <trkpt lat="48.22772" lon="7.12218">
        <ele>937</ele>
        <time>2026-07-09T17:24:09.000Z</time>
      </trkpt>
      <trkpt lat="48.22791" lon="7.1224">
        <ele>938</ele>
        <time>2026-07-09T17:24:47.000Z</time>
      </trkpt>
      <trkpt lat="48.22801" lon="7.12276">
        <ele>939</ele>
        <time>2026-07-09T17:25:27.000Z</time>
      </trkpt>
      <trkpt lat="48.22811" lon="7.12312">
        <ele>941</ele>
        <time>2026-07-09T17:26:17.000Z</time>
      </trkpt>
      <trkpt lat="48.22818" lon="7.12356">
        <ele>943</ele>
        <time>2026-07-09T17:27:12.000Z</time>
      </trkpt>
      <trkpt lat="48.22815" lon="7.12404">
        <ele>944</ele>
        <time>2026-07-09T17:27:59.000Z</time>
      </trkpt>
      <trkpt lat="48.22811" lon="7.12437">
        <ele>947</ele>
        <time>2026-07-09T17:28:56.000Z</time>
      </trkpt>
      <trkpt lat="48.22806" lon="7.1247">
        <ele>948</ele>
        <time>2026-07-09T17:29:32.000Z</time>
      </trkpt>
      <trkpt lat="48.22812" lon="7.12469">
        <ele>947</ele>
        <time>2026-07-09T17:29:39.000Z</time>
      </trkpt>
      <trkpt lat="48.22838" lon="7.12465">
        <ele>942</ele>
        <time>2026-07-09T17:30:08.000Z</time>
      </trkpt>
      <trkpt lat="48.22863" lon="7.12461">
        <ele>940</ele>
        <time>2026-07-09T17:30:37.000Z</time>
      </trkpt>
      <trkpt lat="48.22896" lon="7.1245">
        <ele>939</ele>
        <time>2026-07-09T17:31:15.000Z</time>
      </trkpt>
      <trkpt lat="48.22928" lon="7.12439">
        <ele>938</ele>
        <time>2026-07-09T17:31:53.000Z</time>
      </trkpt>
      <trkpt lat="48.22961" lon="7.12428">
        <ele>932</ele>
        <time>2026-07-09T17:32:31.000Z</time>
      </trkpt>
      <trkpt lat="48.22991" lon="7.12416">
        <ele>926</ele>
        <time>2026-07-09T17:33:07.000Z</time>
      </trkpt>
      <trkpt lat="48.23021" lon="7.12404">
        <ele>921</ele>
        <time>2026-07-09T17:33:43.000Z</time>
      </trkpt>
      <trkpt lat="48.23052" lon="7.12392">
        <ele>918</ele>
        <time>2026-07-09T17:34:19.000Z</time>
      </trkpt>
      <trkpt lat="48.23078" lon="7.12372">
        <ele>913</ele>
        <time>2026-07-09T17:34:52.000Z</time>
      </trkpt>
      <trkpt lat="48.23103" lon="7.12351">
        <ele>909</ele>
        <time>2026-07-09T17:35:25.000Z</time>
      </trkpt>
      <trkpt lat="48.23121" lon="7.12328">
        <ele>904</ele>
        <time>2026-07-09T17:35:52.000Z</time>
      </trkpt>
      <trkpt lat="48.23138" lon="7.12305">
        <ele>899</ele>
        <time>2026-07-09T17:36:19.000Z</time>
      </trkpt>
      <trkpt lat="48.23138" lon="7.12318">
        <ele>899</ele>
        <time>2026-07-09T17:36:29.000Z</time>
      </trkpt>
      <trkpt lat="48.23138" lon="7.12305">
        <ele>899</ele>
        <time>2026-07-09T17:36:39.000Z</time>
      </trkpt>
      <trkpt lat="48.2316" lon="7.12287">
        <ele>895</ele>
        <time>2026-07-09T17:37:07.000Z</time>
      </trkpt>
      <trkpt lat="48.23198" lon="7.12295">
        <ele>881</ele>
        <time>2026-07-09T17:37:51.000Z</time>
      </trkpt>
      <trkpt lat="48.23236" lon="7.12303">
        <ele>871</ele>
        <time>2026-07-09T17:38:35.000Z</time>
      </trkpt>
      <trkpt lat="48.23275" lon="7.12311">
        <ele>861</ele>
        <time>2026-07-09T17:39:19.000Z</time>
      </trkpt>
      <trkpt lat="48.23313" lon="7.12319">
        <ele>853</ele>
        <time>2026-07-09T17:40:03.000Z</time>
      </trkpt>
      <trkpt lat="48.23351" lon="7.12327">
        <ele>845</ele>
        <time>2026-07-09T17:40:47.000Z</time>
      </trkpt>
      <trkpt lat="48.23388" lon="7.12316">
        <ele>835</ele>
        <time>2026-07-09T17:41:30.000Z</time>
      </trkpt>
      <trkpt lat="48.23375" lon="7.12345">
        <ele>837</ele>
        <time>2026-07-09T17:42:17.000Z</time>
      </trkpt>
      <trkpt lat="48.23365" lon="7.12364">
        <ele>836</ele>
        <time>2026-07-09T17:42:36.000Z</time>
      </trkpt>
      <trkpt lat="48.2335" lon="7.1238">
        <ele>836</ele>
        <time>2026-07-09T17:42:57.000Z</time>
      </trkpt>
      <trkpt lat="48.23319" lon="7.12402">
        <ele>836</ele>
        <time>2026-07-09T17:43:37.000Z</time>
      </trkpt>
      <trkpt lat="48.23287" lon="7.12423">
        <ele>834</ele>
        <time>2026-07-09T17:44:17.000Z</time>
      </trkpt>
      <trkpt lat="48.23267" lon="7.12445">
        <ele>832</ele>
        <time>2026-07-09T17:44:45.000Z</time>
      </trkpt>
      <trkpt lat="48.23256" lon="7.12462">
        <ele>833</ele>
        <time>2026-07-09T17:45:13.000Z</time>
      </trkpt>
      <trkpt lat="48.2324" lon="7.12501">
        <ele>834</ele>
        <time>2026-07-09T17:45:59.000Z</time>
      </trkpt>
      <trkpt lat="48.23223" lon="7.12541">
        <ele>836</ele>
        <time>2026-07-09T17:46:55.000Z</time>
      </trkpt>
      <trkpt lat="48.23206" lon="7.1258">
        <ele>836</ele>
        <time>2026-07-09T17:47:31.000Z</time>
      </trkpt>
      <trkpt lat="48.23196" lon="7.12598">
        <ele>836</ele>
        <time>2026-07-09T17:47:49.000Z</time>
      </trkpt>
      <trkpt lat="48.2317" lon="7.12628">
        <ele>835</ele>
        <time>2026-07-09T17:48:26.000Z</time>
      </trkpt>
      <trkpt lat="48.23163" lon="7.12645">
        <ele>835</ele>
        <time>2026-07-09T17:48:41.000Z</time>
      </trkpt>
      <trkpt lat="48.23165" lon="7.12668">
        <ele>835</ele>
        <time>2026-07-09T17:48:59.000Z</time>
      </trkpt>
      <trkpt lat="48.23181" lon="7.12701">
        <ele>833</ele>
        <time>2026-07-09T17:49:31.000Z</time>
      </trkpt>
      <trkpt lat="48.23193" lon="7.12711">
        <ele>832</ele>
        <time>2026-07-09T17:49:47.000Z</time>
      </trkpt>
      <trkpt lat="48.2322" lon="7.12716">
        <ele>828</ele>
        <time>2026-07-09T17:50:18.000Z</time>
      </trkpt>
      <trkpt lat="48.23246" lon="7.12722">
        <ele>826</ele>
        <time>2026-07-09T17:50:49.000Z</time>
      </trkpt>
      <trkpt lat="48.23269" lon="7.12721">
        <ele>823</ele>
        <time>2026-07-09T17:51:15.000Z</time>
      </trkpt>
      <trkpt lat="48.23301" lon="7.1271">
        <ele>819</ele>
        <time>2026-07-09T17:51:53.000Z</time>
      </trkpt>
      <trkpt lat="48.23333" lon="7.12698">
        <ele>815</ele>
        <time>2026-07-09T17:52:31.000Z</time>
      </trkpt>
      <trkpt lat="48.23368" lon="7.12681">
        <ele>811</ele>
        <time>2026-07-09T17:53:13.000Z</time>
      </trkpt>
      <trkpt lat="48.23404" lon="7.12664">
        <ele>807</ele>
        <time>2026-07-09T17:53:55.000Z</time>
      </trkpt>
      <trkpt lat="48.23432" lon="7.12654">
        <ele>803</ele>
        <time>2026-07-09T17:54:28.000Z</time>
      </trkpt>
      <trkpt lat="48.23451" lon="7.12654">
        <ele>801</ele>
        <time>2026-07-09T17:54:50.000Z</time>
      </trkpt>
      <trkpt lat="48.23475" lon="7.1265">
        <ele>797</ele>
        <time>2026-07-09T17:55:18.000Z</time>
      </trkpt>
      <trkpt lat="48.23507" lon="7.12654">
        <ele>790</ele>
        <time>2026-07-09T17:55:54.000Z</time>
      </trkpt>
      <trkpt lat="48.23538" lon="7.12658">
        <ele>785</ele>
        <time>2026-07-09T17:56:30.000Z</time>
      </trkpt>
      <trkpt lat="48.23573" lon="7.12654">
        <ele>779</ele>
        <time>2026-07-09T17:57:11.000Z</time>
      </trkpt>
      <trkpt lat="48.23609" lon="7.1265">
        <ele>773</ele>
        <time>2026-07-09T17:57:52.000Z</time>
      </trkpt>
      <trkpt lat="48.23644" lon="7.12645">
        <ele>766</ele>
        <time>2026-07-09T17:58:33.000Z</time>
      </trkpt>
      <trkpt lat="48.23679" lon="7.12641">
        <ele>761</ele>
        <time>2026-07-09T17:59:14.000Z</time>
      </trkpt>
      <trkpt lat="48.23718" lon="7.1266">
        <ele>762</ele>
        <time>2026-07-09T18:00:11.000Z</time>
      </trkpt>
      <trkpt lat="48.23757" lon="7.1268">
        <ele>763</ele>
        <time>2026-07-09T18:01:08.000Z</time>
      </trkpt>
      <trkpt lat="48.23796" lon="7.12699">
        <ele>764</ele>
        <time>2026-07-09T18:02:05.000Z</time>
      </trkpt>
      <trkpt lat="48.23835" lon="7.12718">
        <ele>766</ele>
        <time>2026-07-09T18:03:13.000Z</time>
      </trkpt>
      <trkpt lat="48.23867" lon="7.1275">
        <ele>769</ele>
        <time>2026-07-09T18:04:28.000Z</time>
      </trkpt>
      <trkpt lat="48.23898" lon="7.12782">
        <ele>768</ele>
        <time>2026-07-09T18:05:12.000Z</time>
      </trkpt>
      <trkpt lat="48.2393" lon="7.12814">
        <ele>766</ele>
        <time>2026-07-09T18:05:56.000Z</time>
      </trkpt>
      <trkpt lat="48.23962" lon="7.12846">
        <ele>763</ele>
        <time>2026-07-09T18:06:40.000Z</time>
      </trkpt>
      <trkpt lat="48.23993" lon="7.12878">
        <ele>754</ele>
        <time>2026-07-09T18:07:24.000Z</time>
      </trkpt>
      <trkpt lat="48.2401" lon="7.12907">
        <ele>751</ele>
        <time>2026-07-09T18:07:53.000Z</time>
      </trkpt>
      <trkpt lat="48.24017" lon="7.12941">
        <ele>748</ele>
        <time>2026-07-09T18:08:20.000Z</time>
      </trkpt>
      <trkpt lat="48.24017" lon="7.12977">
        <ele>744</ele>
        <time>2026-07-09T18:08:47.000Z</time>
      </trkpt>
      <trkpt lat="48.24017" lon="7.13012">
        <ele>742</ele>
        <time>2026-07-09T18:09:14.000Z</time>
      </trkpt>
      <trkpt lat="48.24021" lon="7.13033">
        <ele>740</ele>
        <time>2026-07-09T18:09:31.000Z</time>
      </trkpt>
      <trkpt lat="48.2404" lon="7.13072">
        <ele>739</ele>
        <time>2026-07-09T18:10:08.000Z</time>
      </trkpt>
      <trkpt lat="48.24057" lon="7.13089">
        <ele>745</ele>
        <time>2026-07-09T18:11:33.000Z</time>
      </trkpt>
      <trkpt lat="48.24084" lon="7.13099">
        <ele>750</ele>
        <time>2026-07-09T18:12:56.000Z</time>
      </trkpt>
      <trkpt lat="48.24122" lon="7.13093">
        <ele>755</ele>
        <time>2026-07-09T18:14:31.000Z</time>
      </trkpt>
      <trkpt lat="48.24153" lon="7.13106">
        <ele>759</ele>
        <time>2026-07-09T18:15:49.000Z</time>
      </trkpt>
      <trkpt lat="48.24183" lon="7.13119">
        <ele>764</ele>
        <time>2026-07-09T18:17:17.000Z</time>
      </trkpt>
      <trkpt lat="48.24218" lon="7.13121">
        <ele>764</ele>
        <time>2026-07-09T18:17:57.000Z</time>
      </trkpt>
      <trkpt lat="48.24247" lon="7.13132">
        <ele>762</ele>
        <time>2026-07-09T18:18:31.000Z</time>
      </trkpt>
      <trkpt lat="48.24266" lon="7.13148">
        <ele>765</ele>
        <time>2026-07-09T18:19:27.000Z</time>
      </trkpt>
      <trkpt lat="48.24282" lon="7.13181">
        <ele>767</ele>
        <time>2026-07-09T18:20:18.000Z</time>
      </trkpt>
      <trkpt lat="48.24291" lon="7.13212">
        <ele>768</ele>
        <time>2026-07-09T18:20:54.000Z</time>
      </trkpt>
      <trkpt lat="48.24291" lon="7.13265">
        <ele>772</ele>
        <time>2026-07-09T18:22:15.000Z</time>
      </trkpt>
      <trkpt lat="48.24284" lon="7.1327">
        <ele>772</ele>
        <time>2026-07-09T18:22:25.000Z</time>
      </trkpt>
      <trkpt lat="48.24291" lon="7.13265">
        <ele>772</ele>
        <time>2026-07-09T18:22:34.000Z</time>
      </trkpt>
      <trkpt lat="48.24312" lon="7.13278">
        <ele>772</ele>
        <time>2026-07-09T18:23:00.000Z</time>
      </trkpt>
      <trkpt lat="48.24316" lon="7.13286">
        <ele>771</ele>
        <time>2026-07-09T18:23:08.000Z</time>
      </trkpt>
      <trkpt lat="48.24279" lon="7.13316">
        <ele>772</ele>
        <time>2026-07-09T18:24:07.000Z</time>
      </trkpt>
      <trkpt lat="48.24253" lon="7.13347">
        <ele>773</ele>
        <time>2026-07-09T18:24:55.000Z</time>
      </trkpt>
      <trkpt lat="48.24228" lon="7.13359">
        <ele>774</ele>
        <time>2026-07-09T18:25:36.000Z</time>
      </trkpt>
      <trkpt lat="48.24217" lon="7.13413">
        <ele>771</ele>
        <time>2026-07-09T18:26:19.000Z</time>
      </trkpt>
      <trkpt lat="48.24212" lon="7.13424">
        <ele>771</ele>
        <time>2026-07-09T18:26:29.000Z</time>
      </trkpt>
      <trkpt lat="48.24217" lon="7.13413">
        <ele>771</ele>
        <time>2026-07-09T18:26:39.000Z</time>
      </trkpt>
      <trkpt lat="48.24251" lon="7.13435">
        <ele>769</ele>
        <time>2026-07-09T18:27:22.000Z</time>
      </trkpt>
      <trkpt lat="48.24292" lon="7.13447">
        <ele>765</ele>
        <time>2026-07-09T18:28:10.000Z</time>
      </trkpt>
      <trkpt lat="48.24316" lon="7.13446">
        <ele>762</ele>
        <time>2026-07-09T18:28:37.000Z</time>
      </trkpt>
      <trkpt lat="48.24332" lon="7.13452">
        <ele>760</ele>
        <time>2026-07-09T18:28:56.000Z</time>
      </trkpt>
      <trkpt lat="48.24342" lon="7.13469">
        <ele>757</ele>
        <time>2026-07-09T18:29:14.000Z</time>
      </trkpt>
      <trkpt lat="48.24343" lon="7.1353">
        <ele>752</ele>
        <time>2026-07-09T18:30:00.000Z</time>
      </trkpt>
      <trkpt lat="48.2434" lon="7.13547">
        <ele>749</ele>
        <time>2026-07-09T18:30:14.000Z</time>
      </trkpt>
      <trkpt lat="48.24333" lon="7.1356">
        <ele>746</ele>
        <time>2026-07-09T18:30:27.000Z</time>
      </trkpt>
      <trkpt lat="48.24303" lon="7.13577">
        <ele>737</ele>
        <time>2026-07-09T18:31:04.000Z</time>
      </trkpt>
      <trkpt lat="48.24281" lon="7.13598">
        <ele>732</ele>
        <time>2026-07-09T18:31:33.000Z</time>
      </trkpt>
      <trkpt lat="48.24253" lon="7.1364">
        <ele>725</ele>
        <time>2026-07-09T18:32:19.000Z</time>
      </trkpt>
      <trkpt lat="48.24233" lon="7.13661">
        <ele>722</ele>
        <time>2026-07-09T18:32:47.000Z</time>
      </trkpt>
      <trkpt lat="48.24193" lon="7.13692">
        <ele>719</ele>
        <time>2026-07-09T18:33:38.000Z</time>
      </trkpt>
      <trkpt lat="48.24153" lon="7.13722">
        <ele>717</ele>
        <time>2026-07-09T18:34:29.000Z</time>
      </trkpt>
      <trkpt lat="48.24144" lon="7.13764">
        <ele>711</ele>
        <time>2026-07-09T18:35:03.000Z</time>
      </trkpt>
      <trkpt lat="48.24134" lon="7.13806">
        <ele>707</ele>
        <time>2026-07-09T18:35:37.000Z</time>
      </trkpt>
      <trkpt lat="48.24136" lon="7.1383">
        <ele>706</ele>
        <time>2026-07-09T18:35:56.000Z</time>
      </trkpt>
      <trkpt lat="48.2414" lon="7.13862">
        <ele>702</ele>
        <time>2026-07-09T18:36:21.000Z</time>
      </trkpt>
      <trkpt lat="48.24167" lon="7.13885">
        <ele>698</ele>
        <time>2026-07-09T18:36:57.000Z</time>
      </trkpt>
      <trkpt lat="48.24195" lon="7.13908">
        <ele>694</ele>
        <time>2026-07-09T18:37:33.000Z</time>
      </trkpt>
      <trkpt lat="48.24217" lon="7.13957">
        <ele>688</ele>
        <time>2026-07-09T18:38:18.000Z</time>
      </trkpt>
      <trkpt lat="48.24232" lon="7.14002">
        <ele>684</ele>
        <time>2026-07-09T18:38:57.000Z</time>
      </trkpt>
      <trkpt lat="48.24247" lon="7.14048">
        <ele>678</ele>
        <time>2026-07-09T18:39:36.000Z</time>
      </trkpt>
      <trkpt lat="48.24259" lon="7.14104">
        <ele>670</ele>
        <time>2026-07-09T18:40:21.000Z</time>
      </trkpt>
      <trkpt lat="48.24266" lon="7.14154">
        <ele>663</ele>
        <time>2026-07-09T18:41:00.000Z</time>
      </trkpt>
      <trkpt lat="48.24266" lon="7.14176">
        <ele>659</ele>
        <time>2026-07-09T18:41:17.000Z</time>
      </trkpt>
      <trkpt lat="48.24262" lon="7.14202">
        <ele>651</ele>
        <time>2026-07-09T18:41:38.000Z</time>
      </trkpt>
      <trkpt lat="48.24254" lon="7.14219">
        <ele>651</ele>
        <time>2026-07-09T18:41:54.000Z</time>
      </trkpt>
      <trkpt lat="48.24223" lon="7.14231">
        <ele>652</ele>
        <time>2026-07-09T18:42:40.000Z</time>
      </trkpt>
      <trkpt lat="48.24192" lon="7.14222">
        <ele>652</ele>
        <time>2026-07-09T18:43:17.000Z</time>
      </trkpt>
      <trkpt lat="48.24174" lon="7.14198">
        <ele>653</ele>
        <time>2026-07-09T18:43:55.000Z</time>
      </trkpt>
      <trkpt lat="48.24156" lon="7.14174">
        <ele>652</ele>
        <time>2026-07-09T18:44:23.000Z</time>
      </trkpt>
      <trkpt lat="48.24139" lon="7.14125">
        <ele>655</ele>
        <time>2026-07-09T18:45:36.000Z</time>
      </trkpt>
      <trkpt lat="48.24123" lon="7.14076">
        <ele>658</ele>
        <time>2026-07-09T18:46:49.000Z</time>
      </trkpt>
      <trkpt lat="48.24106" lon="7.14028">
        <ele>663</ele>
        <time>2026-07-09T18:48:22.000Z</time>
      </trkpt>
      <trkpt lat="48.24094" lon="7.14037">
        <ele>663</ele>
        <time>2026-07-09T18:48:38.000Z</time>
      </trkpt>
      <trkpt lat="48.24084" lon="7.14069">
        <ele>662</ele>
        <time>2026-07-09T18:49:05.000Z</time>
      </trkpt>
      <trkpt lat="48.24074" lon="7.141">
        <ele>656</ele>
        <time>2026-07-09T18:49:32.000Z</time>
      </trkpt>
      <trkpt lat="48.24056" lon="7.14127">
        <ele>654</ele>
        <time>2026-07-09T18:50:01.000Z</time>
      </trkpt>
      <trkpt lat="48.24028" lon="7.14142">
        <ele>649</ele>
        <time>2026-07-09T18:50:35.000Z</time>
      </trkpt>
      <trkpt lat="48.23999" lon="7.14156">
        <ele>645</ele>
        <time>2026-07-09T18:51:09.000Z</time>
      </trkpt>
      <trkpt lat="48.23975" lon="7.14163">
        <ele>642</ele>
        <time>2026-07-09T18:51:37.000Z</time>
      </trkpt>
      <trkpt lat="48.23951" lon="7.1417">
        <ele>639</ele>
        <time>2026-07-09T18:52:05.000Z</time>
      </trkpt>
      <trkpt lat="48.23933" lon="7.14189">
        <ele>638</ele>
        <time>2026-07-09T18:52:30.000Z</time>
      </trkpt>
      <trkpt lat="48.23917" lon="7.14227">
        <ele>634</ele>
        <time>2026-07-09T18:53:04.000Z</time>
      </trkpt>
      <trkpt lat="48.23944" lon="7.14203">
        <ele>632</ele>
        <time>2026-07-09T18:53:39.000Z</time>
      </trkpt>
      <trkpt lat="48.23951" lon="7.14201">
        <ele>631</ele>
        <time>2026-07-09T18:53:48.000Z</time>
      </trkpt>
      <trkpt lat="48.23994" lon="7.14199">
        <ele>631</ele>
        <time>2026-07-09T18:54:37.000Z</time>
      </trkpt>
      <trkpt lat="48.24036" lon="7.14197">
        <ele>626</ele>
        <time>2026-07-09T18:55:26.000Z</time>
      </trkpt>
      <trkpt lat="48.24069" lon="7.14211">
        <ele>622</ele>
        <time>2026-07-09T18:56:05.000Z</time>
      </trkpt>
      <trkpt lat="48.24102" lon="7.14224">
        <ele>618</ele>
        <time>2026-07-09T18:56:44.000Z</time>
      </trkpt>
      <trkpt lat="48.24108" lon="7.14234">
        <ele>618</ele>
        <time>2026-07-09T18:56:54.000Z</time>
      </trkpt>
      <trkpt lat="48.24105" lon="7.14246">
        <ele>616</ele>
        <time>2026-07-09T18:57:03.000Z</time>
      </trkpt>
    </trkseg>
  </trk>
</gpx>